OVO429 LGRP-ZGHA
Flight info
| Callsign | OVO429 |
|---|---|
| Flight time | 8h 47m |
| Altitude | 37000 |
| Route | SOTIV UN136 TEKDO UW78 KFK UR32 HAY UT54 SIV UA4 ERZ UB374 INDUR N161 EDATA M11 LUSAL N199 RASAM L88 METKA B476 DARVA/K0893F370 T898 OGOLI N193 SR L163 TISIB L141 KAMUD/K0883S1130 W186 SADAN Y1 OMBON W245 OVRAL B330 VIMAM W235 UBRAB B213 VINEX V38 ENH W139 DYG W138 RUKLI RUK2X |
| Aircraft | A359/H-SDE2E3GHIJ3J4J5LM1ORWXY/LB1D1 |
Departure
| Time | 2026-04-29 14:54 |
|---|---|
| Airport | Rhodes International Airport "Diagoras" (LGRP) |
Arrival
| Time | 2026-04-29 23:41 |
|---|---|
| Airport | Changsha Huanghua International Airport (ZGHA) |
| Time | Latitude | Longitude | Altitude | Speed | Heading |
|---|---|---|---|---|---|
| 2026-04-29 14:29 | 36.40298 | 28.08837 | 34 ft | 0 kts | 160° |
| 2026-04-29 14:41 | 36.40308 | 28.08833 | 34 ft | 4 kts | 162° |
| 2026-04-29 14:41 | 36.40333 | 28.08824 | 33 ft | 4 kts | 166° |
| 2026-04-29 14:41 | 36.40359 | 28.08816 | 32 ft | 4 kts | 158° |
| 2026-04-29 14:41 | 36.40380 | 28.08801 | 30 ft | 3 kts | 131° |
| 2026-04-29 14:42 | 36.40392 | 28.08781 | 31 ft | 4 kts | 106° |
| 2026-04-29 14:42 | 36.40395 | 28.08751 | 31 ft | 4 kts | 83° |
| 2026-04-29 14:42 | 36.40392 | 28.08727 | 32 ft | 0 kts | 82° |
| 2026-04-29 14:47 | 36.40393 | 28.08731 | 31 ft | 3 kts | 82° |
| 2026-04-29 14:48 | 36.40400 | 28.08803 | 32 ft | 7 kts | 85° |
| 2026-04-29 14:48 | 36.40400 | 28.08848 | 33 ft | 8 kts | 92° |
| 2026-04-29 14:48 | 36.40398 | 28.08948 | 34 ft | 9 kts | 89° |
| 2026-04-29 14:48 | 36.40409 | 28.09034 | 34 ft | 12 kts | 72° |
| 2026-04-29 14:49 | 36.40438 | 28.09140 | 34 ft | 13 kts | 70° |
| 2026-04-29 14:49 | 36.40459 | 28.09210 | 34 ft | 14 kts | 70° |
| 2026-04-29 14:49 | 36.40499 | 28.09328 | 34 ft | 15 kts | 56° |
| 2026-04-29 14:49 | 36.40574 | 28.09414 | 34 ft | 15 kts | 49° |
| 2026-04-29 14:50 | 36.40621 | 28.09530 | 34 ft | 15 kts | 70° |
| 2026-04-29 14:50 | 36.40659 | 28.09657 | 35 ft | 16 kts | 70° |
| 2026-04-29 14:50 | 36.40699 | 28.09791 | 34 ft | 17 kts | 70° |
| 2026-04-29 14:50 | 36.40739 | 28.09932 | 34 ft | 18 kts | 70° |
| 2026-04-29 14:51 | 36.40782 | 28.10078 | 34 ft | 18 kts | 70° |
| 2026-04-29 14:51 | 36.40826 | 28.10230 | 34 ft | 19 kts | 69° |
| 2026-04-29 14:51 | 36.40868 | 28.10371 | 34 ft | 4 kts | 70° |
| 2026-04-29 14:51 | 36.40882 | 28.10407 | 34 ft | 5 kts | 58° |
| 2026-04-29 14:52 | 36.40912 | 28.10432 | 34 ft | 6 kts | 18° |
| 2026-04-29 14:52 | 36.40956 | 28.10431 | 34 ft | 8 kts | 350° |
| 2026-04-29 14:52 | 36.41009 | 28.10374 | 33 ft | 12 kts | 289° |
| 2026-04-29 14:52 | 36.41021 | 28.10276 | 34 ft | 11 kts | 263° |
| 2026-04-29 14:53 | 36.40998 | 28.10183 | 34 ft | 12 kts | 250° |
| 2026-04-29 14:53 | 36.40939 | 28.09990 | 33 ft | 51 kts | 249° |
| 2026-04-29 14:53 | 36.40769 | 28.09425 | 37 ft | 102 kts | 250° |
| 2026-04-29 14:53 | 36.40488 | 28.08455 | 35 ft | 149 kts | 250° |
| 2026-04-29 14:54 | 36.40171 | 28.07183 | 587 ft | 148 kts | 255° |
| 2026-04-29 14:54 | 36.40017 | 28.05905 | 1097 ft | 155 kts | 268° |
| 2026-04-29 14:54 | 36.39925 | 28.04481 | 1381 ft | 175 kts | 266° |
| 2026-04-29 14:54 | 36.39797 | 28.02875 | 1577 ft | 199 kts | 265° |
| 2026-04-29 14:55 | 36.39646 | 28.01053 | 1815 ft | 224 kts | 265° |
| 2026-04-29 14:55 | 36.39477 | 27.99041 | 2195 ft | 242 kts | 265° |
| 2026-04-29 14:55 | 36.39298 | 27.96928 | 2762 ft | 250 kts | 265° |
| 2026-04-29 14:55 | 36.39114 | 27.94764 | 3432 ft | 254 kts | 264° |
| 2026-04-29 14:56 | 36.38926 | 27.92564 | 4055 ft | 260 kts | 264° |
| 2026-04-29 14:56 | 36.38734 | 27.90305 | 4699 ft | 265 kts | 264° |
| 2026-04-29 14:56 | 36.38467 | 27.88048 | 5322 ft | 269 kts | 256° |
| 2026-04-29 14:56 | 36.37642 | 27.85954 | 6000 ft | 273 kts | 231° |
| 2026-04-29 14:57 | 36.36169 | 27.84489 | 6695 ft | 276 kts | 208° |
| 2026-04-29 14:57 | 36.34430 | 27.83417 | 7394 ft | 279 kts | 206° |
| 2026-04-29 14:57 | 36.32668 | 27.82366 | 8145 ft | 282 kts | 207° |
| 2026-04-29 14:57 | 36.30899 | 27.81291 | 8900 ft | 285 kts | 207° |
| 2026-04-29 14:58 | 36.29115 | 27.80198 | 9648 ft | 288 kts | 207° |
| 2026-04-29 14:58 | 36.27307 | 27.79085 | 10291 ft | 294 kts | 207° |
| 2026-04-29 14:58 | 36.25424 | 27.77922 | 10616 ft | 312 kts | 208° |
| 2026-04-29 14:58 | 36.23428 | 27.76688 | 10949 ft | 329 kts | 208° |
| 2026-04-29 14:59 | 36.21333 | 27.75395 | 11297 ft | 343 kts | 208° |
| 2026-04-29 14:59 | 36.19160 | 27.74055 | 11818 ft | 351 kts | 208° |
| 2026-04-29 14:59 | 36.16954 | 27.72696 | 12440 ft | 357 kts | 208° |
| 2026-04-29 14:59 | 36.14722 | 27.71322 | 13109 ft | 361 kts | 208° |
| 2026-04-29 15:00 | 36.12366 | 27.70176 | 13717 ft | 368 kts | 195° |
| 2026-04-29 15:00 | 36.09839 | 27.69964 | 14281 ft | 375 kts | 175° |
| 2026-04-29 15:00 | 36.07321 | 27.70888 | 14863 ft | 382 kts | 154° |
| 2026-04-29 15:00 | 36.05195 | 27.72866 | 15452 ft | 388 kts | 133° |
| 2026-04-29 15:01 | 36.03746 | 27.75680 | 16000 ft | 393 kts | 112° |
| 2026-04-29 15:01 | 36.03190 | 27.78974 | 16580 ft | 397 kts | 91° |
| 2026-04-29 15:01 | 36.03597 | 27.82343 | 17128 ft | 399 kts | 70° |
| 2026-04-29 15:01 | 36.04614 | 27.85540 | 17693 ft | 403 kts | 66° |
| 2026-04-29 15:02 | 36.05700 | 27.88755 | 18225 ft | 408 kts | 68° |
| 2026-04-29 15:02 | 36.06384 | 27.92166 | 18706 ft | 413 kts | 85° |
| 2026-04-29 15:02 | 36.06214 | 27.95708 | 19277 ft | 414 kts | 99° |
| 2026-04-29 15:02 | 36.05818 | 27.99237 | 19812 ft | 417 kts | 94° |
| 2026-04-29 15:03 | 36.06027 | 28.02811 | 20361 ft | 419 kts | 75° |
| 2026-04-29 15:03 | 36.07154 | 28.06123 | 20918 ft | 419 kts | 56° |
| 2026-04-29 15:03 | 36.09072 | 28.08802 | 21463 ft | 418 kts | 37° |
| 2026-04-29 15:03 | 36.11451 | 28.10847 | 22021 ft | 419 kts | 31° |
| 2026-04-29 15:04 | 36.13909 | 28.12830 | 22574 ft | 422 kts | 32° |
| 2026-04-29 15:04 | 36.16357 | 28.14863 | 23119 ft | 425 kts | 32° |
| 2026-04-29 15:04 | 36.18796 | 28.16927 | 23652 ft | 427 kts | 33° |
| 2026-04-29 15:04 | 36.21251 | 28.19024 | 24085 ft | 431 kts | 33° |
| 2026-04-29 15:05 | 36.23721 | 28.21147 | 24528 ft | 434 kts | 33° |
| 2026-04-29 15:05 | 36.26209 | 28.23293 | 24977 ft | 437 kts | 33° |
| 2026-04-29 15:05 | 36.28705 | 28.25450 | 25418 ft | 439 kts | 33° |
| 2026-04-29 15:05 | 36.31216 | 28.27624 | 25839 ft | 442 kts | 33° |
| 2026-04-29 15:06 | 36.33749 | 28.29820 | 26282 ft | 445 kts | 33° |
| 2026-04-29 15:06 | 36.36295 | 28.32030 | 26718 ft | 448 kts | 33° |
| 2026-04-29 15:06 | 36.38846 | 28.34246 | 27144 ft | 451 kts | 33° |
| 2026-04-29 15:06 | 36.41433 | 28.36495 | 27562 ft | 453 kts | 33° |
| 2026-04-29 15:07 | 36.44021 | 28.38746 | 27985 ft | 456 kts | 33° |
| 2026-04-29 15:07 | 36.46631 | 28.41019 | 28389 ft | 459 kts | 33° |
| 2026-04-29 15:07 | 36.49243 | 28.43295 | 28806 ft | 462 kts | 33° |
| 2026-04-29 15:07 | 36.51878 | 28.45618 | 29192 ft | 465 kts | 35° |
| 2026-04-29 15:08 | 36.54334 | 28.48232 | 29563 ft | 469 kts | 45° |
| 2026-04-29 15:08 | 36.56411 | 28.51379 | 29965 ft | 472 kts | 55° |
| 2026-04-29 15:08 | 36.58194 | 28.54818 | 30289 ft | 475 kts | 58° |
| 2026-04-29 15:08 | 36.59863 | 28.58328 | 30594 ft | 478 kts | 59° |
| 2026-04-29 15:09 | 36.61529 | 28.61971 | 30891 ft | 481 kts | 59° |
| 2026-04-29 15:09 | 36.63161 | 28.65569 | 31167 ft | 484 kts | 59° |
| 2026-04-29 15:09 | 36.64822 | 28.69215 | 31446 ft | 486 kts | 59° |
| 2026-04-29 15:09 | 36.66498 | 28.72844 | 31706 ft | 488 kts | 58° |
| 2026-04-29 15:10 | 36.68445 | 28.76327 | 31953 ft | 489 kts | 49° |
| 2026-04-29 15:10 | 36.70802 | 28.79393 | 32212 ft | 488 kts | 39° |
| 2026-04-29 15:10 | 36.73496 | 28.81969 | 32459 ft | 489 kts | 33° |
| 2026-04-29 15:10 | 36.76303 | 28.84372 | 32729 ft | 490 kts | 32° |
| 2026-04-29 15:11 | 36.79144 | 28.86717 | 32971 ft | 492 kts | 31° |
| 2026-04-29 15:11 | 36.82011 | 28.89052 | 33310 ft | 492 kts | 31° |
| 2026-04-29 15:11 | 36.84880 | 28.91390 | 33657 ft | 491 kts | 31° |
| 2026-04-29 15:11 | 36.87727 | 28.93722 | 34012 ft | 491 kts | 31° |
| 2026-04-29 15:12 | 36.90576 | 28.96069 | 34285 ft | 491 kts | 31° |
| 2026-04-29 15:12 | 36.92461 | 28.97628 | 34460 ft | 491 kts | 31° |
| 2026-04-29 15:12 | 36.96269 | 29.00788 | 34843 ft | 490 kts | 31° |
| 2026-04-29 15:12 | 36.99112 | 29.03152 | 35067 ft | 491 kts | 31° |
| 2026-04-29 15:13 | 37.01956 | 29.05521 | 35262 ft | 491 kts | 31° |
| 2026-04-29 15:13 | 37.04800 | 29.07893 | 35543 ft | 490 kts | 31° |
| 2026-04-29 15:13 | 37.07633 | 29.10257 | 35801 ft | 490 kts | 30° |
| 2026-04-29 15:13 | 37.10468 | 29.12623 | 36012 ft | 490 kts | 30° |
| 2026-04-29 15:14 | 37.13314 | 29.14999 | 36250 ft | 490 kts | 30° |
| 2026-04-29 15:14 | 37.16146 | 29.17363 | 36494 ft | 490 kts | 30° |
| 2026-04-29 15:14 | 37.18990 | 29.19744 | 36705 ft | 489 kts | 30° |
| 2026-04-29 15:14 | 37.21745 | 29.22056 | 36880 ft | 490 kts | 30° |
| 2026-04-29 15:15 | 37.24616 | 29.24468 | 36989 ft | 492 kts | 30° |
| 2026-04-29 15:15 | 37.30383 | 29.29299 | 37011 ft | 496 kts | 30° |
| 2026-04-29 15:16 | 37.36115 | 29.34099 | 37012 ft | 495 kts | 30° |
| 2026-04-29 15:16 | 37.41778 | 29.38894 | 37014 ft | 494 kts | 30° |
| 2026-04-29 15:17 | 37.47489 | 29.43743 | 37015 ft | 494 kts | 30° |
| 2026-04-29 15:17 | 37.53203 | 29.48560 | 37013 ft | 494 kts | 30° |
| 2026-04-29 15:18 | 37.58912 | 29.53373 | 37019 ft | 494 kts | 30° |
| 2026-04-29 15:18 | 37.64620 | 29.58195 | 37021 ft | 494 kts | 30° |
| 2026-04-29 15:19 | 37.70340 | 29.63037 | 37024 ft | 494 kts | 30° |
| 2026-04-29 15:19 | 37.76047 | 29.67878 | 37023 ft | 494 kts | 30° |
| 2026-04-29 15:20 | 37.81769 | 29.72729 | 37022 ft | 494 kts | 29° |
| 2026-04-29 15:20 | 37.87534 | 29.77448 | 37021 ft | 494 kts | 28° |
| 2026-04-29 15:21 | 37.93325 | 29.82150 | 37022 ft | 494 kts | 28° |
| 2026-04-29 15:21 | 37.99056 | 29.86840 | 37018 ft | 494 kts | 29° |
| 2026-04-29 15:22 | 38.04820 | 29.91585 | 37023 ft | 494 kts | 29° |
| 2026-04-29 15:22 | 38.10577 | 29.96339 | 37025 ft | 494 kts | 29° |
| 2026-04-29 15:23 | 38.16333 | 30.01097 | 37020 ft | 494 kts | 29° |
| 2026-04-29 15:23 | 38.22095 | 30.05860 | 37025 ft | 494 kts | 29° |
| 2026-04-29 15:24 | 38.27854 | 30.10637 | 37031 ft | 495 kts | 29° |
| 2026-04-29 15:24 | 38.33568 | 30.15531 | 37022 ft | 497 kts | 34° |
| 2026-04-29 15:25 | 38.38769 | 30.21375 | 37027 ft | 500 kts | 39° |
| 2026-04-29 15:25 | 38.43857 | 30.27421 | 37026 ft | 500 kts | 39° |
| 2026-04-29 15:26 | 38.48930 | 30.33498 | 37029 ft | 500 kts | 39° |
| 2026-04-29 15:26 | 38.54000 | 30.39560 | 37029 ft | 500 kts | 39° |
| 2026-04-29 15:27 | 38.59082 | 30.45637 | 37028 ft | 500 kts | 39° |
| 2026-04-29 15:27 | 38.64163 | 30.51720 | 37027 ft | 500 kts | 39° |
| 2026-04-29 15:28 | 38.69201 | 30.57769 | 37028 ft | 500 kts | 39° |
| 2026-04-29 15:28 | 38.73573 | 30.64828 | 37035 ft | 508 kts | 57° |
| 2026-04-29 15:29 | 38.77034 | 30.72735 | 37035 ft | 510 kts | 59° |
| 2026-04-29 15:30 | 38.83704 | 30.88795 | 37036 ft | 510 kts | 59° |
| 2026-04-29 15:30 | 38.87051 | 30.96824 | 37043 ft | 510 kts | 59° |
| 2026-04-29 15:31 | 38.90405 | 31.04864 | 37048 ft | 511 kts | 59° |
| 2026-04-29 15:31 | 38.93752 | 31.12908 | 37048 ft | 511 kts | 59° |
| 2026-04-29 15:32 | 38.97100 | 31.20973 | 37045 ft | 511 kts | 59° |
| 2026-04-29 15:32 | 39.00440 | 31.29043 | 37047 ft | 511 kts | 59° |
| 2026-04-29 15:33 | 39.03754 | 31.37074 | 37046 ft | 512 kts | 59° |
| 2026-04-29 15:33 | 39.07085 | 31.45165 | 37048 ft | 512 kts | 59° |
| 2026-04-29 15:34 | 39.10410 | 31.53262 | 37051 ft | 512 kts | 59° |
| 2026-04-29 15:34 | 39.13736 | 31.61385 | 37037 ft | 512 kts | 59° |
| 2026-04-29 15:35 | 39.17056 | 31.69511 | 37034 ft | 513 kts | 59° |
| 2026-04-29 15:35 | 39.20366 | 31.77637 | 37029 ft | 513 kts | 59° |
| 2026-04-29 15:36 | 39.23357 | 31.86028 | 37031 ft | 515 kts | 64° |
| 2026-04-29 15:36 | 39.26096 | 31.94578 | 37029 ft | 516 kts | 65° |
| 2026-04-29 15:37 | 39.28799 | 32.03149 | 37031 ft | 516 kts | 65° |
| 2026-04-29 15:37 | 39.31049 | 32.10288 | 37030 ft | 516 kts | 65° |
| 2026-04-29 15:38 | 39.33753 | 32.18865 | 37033 ft | 516 kts | 65° |
| 2026-04-29 15:38 | 39.36457 | 32.27462 | 37038 ft | 517 kts | 65° |
| 2026-04-29 15:39 | 39.39156 | 32.36068 | 37039 ft | 517 kts | 65° |
| 2026-04-29 15:39 | 39.41812 | 32.44720 | 37045 ft | 517 kts | 66° |
| 2026-04-29 15:40 | 39.43914 | 32.53625 | 37047 ft | 521 kts | 78° |
| 2026-04-29 15:40 | 39.45021 | 32.62903 | 37044 ft | 523 kts | 80° |
| 2026-04-29 15:41 | 39.45994 | 32.72230 | 37042 ft | 523 kts | 81° |
| 2026-04-29 15:41 | 39.46958 | 32.81548 | 37041 ft | 523 kts | 81° |
| 2026-04-29 15:42 | 39.47933 | 32.90858 | 37042 ft | 523 kts | 81° |
| 2026-04-29 15:42 | 39.48918 | 33.00117 | 37035 ft | 523 kts | 80° |
| 2026-04-29 15:43 | 39.49907 | 33.09460 | 37031 ft | 523 kts | 81° |
| 2026-04-29 15:43 | 39.50883 | 33.18778 | 37028 ft | 523 kts | 81° |
| 2026-04-29 15:44 | 39.51855 | 33.28118 | 37023 ft | 523 kts | 81° |
| 2026-04-29 15:44 | 39.52816 | 33.37476 | 37020 ft | 523 kts | 81° |
| 2026-04-29 15:45 | 39.53755 | 33.46799 | 37019 ft | 523 kts | 81° |
| 2026-04-29 15:45 | 39.54692 | 33.56169 | 37014 ft | 523 kts | 81° |
| 2026-04-29 15:46 | 39.55622 | 33.65522 | 37012 ft | 523 kts | 81° |
| 2026-04-29 15:46 | 39.56527 | 33.74861 | 37011 ft | 524 kts | 81° |
| 2026-04-29 15:47 | 39.57457 | 33.84244 | 37005 ft | 524 kts | 81° |
| 2026-04-29 15:47 | 39.58379 | 33.93606 | 37001 ft | 524 kts | 81° |
| 2026-04-29 15:48 | 39.59287 | 34.02983 | 36994 ft | 524 kts | 81° |
| 2026-04-29 15:48 | 39.60184 | 34.12355 | 36990 ft | 524 kts | 81° |
| 2026-04-29 15:49 | 39.61074 | 34.21743 | 36986 ft | 524 kts | 81° |
| 2026-04-29 15:49 | 39.61956 | 34.31120 | 36983 ft | 524 kts | 82° |
| 2026-04-29 15:50 | 39.62830 | 34.40501 | 36983 ft | 524 kts | 81° |
| 2026-04-29 15:50 | 39.63697 | 34.49815 | 36979 ft | 523 kts | 82° |
| 2026-04-29 15:51 | 39.64556 | 34.59238 | 36978 ft | 522 kts | 82° |
| 2026-04-29 15:51 | 39.65401 | 34.68586 | 36984 ft | 522 kts | 82° |
| 2026-04-29 15:52 | 39.66236 | 34.77886 | 36986 ft | 522 kts | 82° |
| 2026-04-29 15:52 | 39.67070 | 34.87246 | 36989 ft | 522 kts | 82° |
| 2026-04-29 15:53 | 39.67901 | 34.96668 | 36990 ft | 523 kts | 82° |
| 2026-04-29 15:53 | 39.68717 | 35.05999 | 36999 ft | 524 kts | 82° |
| 2026-04-29 15:54 | 39.69530 | 35.15401 | 37003 ft | 525 kts | 82° |
| 2026-04-29 15:54 | 39.70339 | 35.24844 | 37004 ft | 526 kts | 82° |
| 2026-04-29 15:55 | 39.71137 | 35.34239 | 37014 ft | 527 kts | 82° |
| 2026-04-29 15:55 | 39.71936 | 35.43744 | 37016 ft | 527 kts | 82° |
| 2026-04-29 15:56 | 39.72725 | 35.53211 | 37023 ft | 527 kts | 82° |
| 2026-04-29 15:56 | 39.73507 | 35.62699 | 37030 ft | 527 kts | 82° |
| 2026-04-29 15:57 | 39.74272 | 35.72145 | 37048 ft | 527 kts | 82° |
| 2026-04-29 15:57 | 39.75029 | 35.81582 | 37056 ft | 526 kts | 83° |
| 2026-04-29 15:58 | 39.75782 | 35.91066 | 37070 ft | 526 kts | 83° |
| 2026-04-29 15:58 | 39.76526 | 36.00527 | 37067 ft | 526 kts | 83° |
| 2026-04-29 15:59 | 39.77259 | 36.09955 | 37064 ft | 525 kts | 83° |
| 2026-04-29 15:59 | 39.77986 | 36.19396 | 37063 ft | 524 kts | 83° |
| 2026-04-29 16:00 | 39.78644 | 36.28786 | 37063 ft | 524 kts | 86° |
| 2026-04-29 16:00 | 39.78734 | 36.38201 | 37061 ft | 524 kts | 90° |
| 2026-04-29 16:01 | 39.78678 | 36.47671 | 37062 ft | 524 kts | 89° |
| 2026-04-29 16:01 | 39.78700 | 36.57149 | 37072 ft | 523 kts | 89° |
| 2026-04-29 16:02 | 39.78774 | 36.66599 | 37085 ft | 524 kts | 88° |
| 2026-04-29 16:02 | 39.78854 | 36.76090 | 37099 ft | 524 kts | 89° |
| 2026-04-29 16:03 | 39.78924 | 36.85551 | 37103 ft | 524 kts | 89° |
| 2026-04-29 16:03 | 39.79404 | 36.94988 | 37101 ft | 522 kts | 83° |
| 2026-04-29 16:04 | 39.80158 | 37.04370 | 37098 ft | 522 kts | 83° |
| 2026-04-29 16:04 | 39.80940 | 37.13760 | 37083 ft | 522 kts | 83° |
| 2026-04-29 16:05 | 39.81709 | 37.23171 | 37062 ft | 522 kts | 83° |
| 2026-04-29 16:05 | 39.82460 | 37.32559 | 37031 ft | 522 kts | 83° |
| 2026-04-29 16:06 | 39.83201 | 37.41965 | 37097 ft | 523 kts | 83° |
| 2026-04-29 16:06 | 39.83568 | 37.46655 | 37305 ft | 522 kts | 83° |
| 2026-04-29 16:06 | 39.83932 | 37.51368 | 37545 ft | 522 kts | 83° |
| 2026-04-29 16:06 | 39.84290 | 37.56057 | 37750 ft | 522 kts | 84° |
| 2026-04-29 16:07 | 39.84646 | 37.60772 | 37962 ft | 522 kts | 84° |
| 2026-04-29 16:07 | 39.84881 | 37.63885 | 38072 ft | 522 kts | 84° |
| 2026-04-29 16:07 | 39.85352 | 37.70164 | 38289 ft | 523 kts | 84° |
| 2026-04-29 16:07 | 39.85704 | 37.74874 | 38495 ft | 522 kts | 84° |
| 2026-04-29 16:08 | 39.86054 | 37.79581 | 38653 ft | 522 kts | 84° |
| 2026-04-29 16:08 | 39.86399 | 37.84233 | 38794 ft | 522 kts | 84° |
| 2026-04-29 16:08 | 39.86744 | 37.88927 | 38927 ft | 522 kts | 84° |
| 2026-04-29 16:09 | 39.87434 | 37.98375 | 39011 ft | 527 kts | 84° |
| 2026-04-29 16:09 | 39.88136 | 38.07941 | 39011 ft | 527 kts | 84° |
| 2026-04-29 16:10 | 39.88816 | 38.17359 | 39021 ft | 526 kts | 84° |
| 2026-04-29 16:10 | 39.89493 | 38.26848 | 39014 ft | 526 kts | 84° |
| 2026-04-29 16:11 | 39.90163 | 38.36324 | 39010 ft | 526 kts | 84° |
| 2026-04-29 16:11 | 39.90825 | 38.45803 | 39007 ft | 525 kts | 84° |
| 2026-04-29 16:12 | 39.91479 | 38.55267 | 39007 ft | 526 kts | 84° |
| 2026-04-29 16:12 | 39.92127 | 38.64768 | 39006 ft | 525 kts | 84° |
| 2026-04-29 16:13 | 39.92763 | 38.74212 | 39003 ft | 525 kts | 85° |
| 2026-04-29 16:13 | 39.93393 | 38.83696 | 38999 ft | 524 kts | 85° |
| 2026-04-29 16:14 | 39.93968 | 38.93171 | 39008 ft | 523 kts | 88° |
| 2026-04-29 16:14 | 39.94103 | 39.02621 | 38994 ft | 522 kts | 90° |
| 2026-04-29 16:15 | 39.94135 | 39.12102 | 38995 ft | 522 kts | 90° |
| 2026-04-29 16:15 | 39.94240 | 39.21545 | 38998 ft | 521 kts | 89° |
| 2026-04-29 16:16 | 39.94381 | 39.30981 | 38995 ft | 521 kts | 89° |
| 2026-04-29 16:16 | 39.94522 | 39.40393 | 38996 ft | 520 kts | 89° |
| 2026-04-29 16:17 | 39.94653 | 39.49812 | 38993 ft | 520 kts | 89° |
| 2026-04-29 16:17 | 39.94774 | 39.59221 | 38994 ft | 519 kts | 90° |
| 2026-04-29 16:18 | 39.94890 | 39.68564 | 39000 ft | 519 kts | 90° |
| 2026-04-29 16:18 | 39.94999 | 39.77957 | 39005 ft | 518 kts | 90° |
| 2026-04-29 16:19 | 39.95101 | 39.87345 | 39010 ft | 518 kts | 90° |
| 2026-04-29 16:19 | 39.95200 | 39.96729 | 39012 ft | 518 kts | 90° |
| 2026-04-29 16:20 | 39.95281 | 40.06118 | 39013 ft | 518 kts | 90° |
| 2026-04-29 16:20 | 39.95350 | 40.15501 | 39015 ft | 518 kts | 90° |
| 2026-04-29 16:21 | 39.95414 | 40.24872 | 39015 ft | 517 kts | 90° |
| 2026-04-29 16:21 | 39.95472 | 40.34255 | 39023 ft | 517 kts | 90° |
| 2026-04-29 16:22 | 39.95524 | 40.43639 | 39022 ft | 517 kts | 91° |
| 2026-04-29 16:22 | 39.95567 | 40.53000 | 39022 ft | 517 kts | 91° |
| 2026-04-29 16:23 | 39.95605 | 40.62371 | 39026 ft | 517 kts | 91° |
| 2026-04-29 16:23 | 39.95636 | 40.71734 | 39030 ft | 517 kts | 91° |
| 2026-04-29 16:24 | 39.95658 | 40.81087 | 39038 ft | 517 kts | 91° |
| 2026-04-29 16:24 | 39.95673 | 40.90461 | 39042 ft | 517 kts | 91° |
| 2026-04-29 16:25 | 39.95681 | 40.99761 | 39047 ft | 517 kts | 91° |
| 2026-04-29 16:25 | 39.95682 | 41.09137 | 39047 ft | 517 kts | 91° |
| 2026-04-29 16:26 | 39.95677 | 41.16984 | 39050 ft | 517 kts | 91° |
| 2026-04-29 16:26 | 39.96089 | 41.26352 | 39049 ft | 518 kts | 86° |
| 2026-04-29 16:27 | 39.96769 | 41.35698 | 39046 ft | 518 kts | 85° |
| 2026-04-29 16:27 | 39.97470 | 41.45002 | 39047 ft | 518 kts | 85° |
| 2026-04-29 16:28 | 39.98162 | 41.54362 | 39047 ft | 519 kts | 86° |
| 2026-04-29 16:28 | 39.98842 | 41.63779 | 39049 ft | 519 kts | 86° |
| 2026-04-29 16:29 | 39.99504 | 41.73083 | 39047 ft | 519 kts | 86° |
| 2026-04-29 16:29 | 40.00175 | 41.82431 | 39044 ft | 519 kts | 86° |
| 2026-04-29 16:30 | 40.00857 | 41.91806 | 39053 ft | 519 kts | 86° |
| 2026-04-29 16:30 | 40.01531 | 42.01175 | 39047 ft | 518 kts | 86° |
| 2026-04-29 16:31 | 40.02191 | 42.10495 | 39050 ft | 518 kts | 86° |
| 2026-04-29 16:31 | 40.02847 | 42.19881 | 39050 ft | 518 kts | 86° |
| 2026-04-29 16:32 | 40.03494 | 42.29271 | 39055 ft | 522 kts | 86° |
| 2026-04-29 16:32 | 40.04142 | 42.38762 | 39047 ft | 528 kts | 86° |
| 2026-04-29 16:33 | 40.05083 | 42.53117 | 39052 ft | 528 kts | 86° |
| 2026-04-29 16:33 | 40.05661 | 42.62658 | 39056 ft | 527 kts | 87° |
| 2026-04-29 16:34 | 40.06234 | 42.72199 | 39053 ft | 526 kts | 87° |
| 2026-04-29 16:34 | 40.06802 | 42.81722 | 39058 ft | 526 kts | 87° |
| 2026-04-29 16:35 | 40.07363 | 42.91204 | 39051 ft | 526 kts | 87° |
| 2026-04-29 16:35 | 40.07926 | 43.00751 | 39056 ft | 526 kts | 87° |
| 2026-04-29 16:36 | 40.08474 | 43.10203 | 39062 ft | 525 kts | 87° |
| 2026-04-29 16:36 | 40.09017 | 43.19746 | 39046 ft | 524 kts | 87° |
| 2026-04-29 16:37 | 40.09548 | 43.29189 | 39050 ft | 524 kts | 87° |
| 2026-04-29 16:37 | 40.09988 | 43.37121 | 39054 ft | 523 kts | 88° |
| 2026-04-29 16:38 | 40.10589 | 43.48114 | 39025 ft | 522 kts | 88° |
| 2026-04-29 16:38 | 40.11095 | 43.57601 | 39007 ft | 522 kts | 88° |
| 2026-04-29 16:39 | 40.11707 | 43.67015 | 38994 ft | 523 kts | 82° |
| 2026-04-29 16:39 | 40.12963 | 43.76382 | 38981 ft | 523 kts | 81° |
| 2026-04-29 16:40 | 40.14304 | 43.85728 | 38978 ft | 523 kts | 81° |
| 2026-04-29 16:40 | 40.15645 | 43.95075 | 38980 ft | 524 kts | 81° |
| 2026-04-29 16:41 | 40.16975 | 44.04461 | 38981 ft | 524 kts | 81° |
| 2026-04-29 16:41 | 40.18291 | 44.13845 | 38996 ft | 524 kts | 81° |
| 2026-04-29 16:42 | 40.19595 | 44.23204 | 38990 ft | 524 kts | 81° |
| 2026-04-29 16:42 | 40.20896 | 44.32599 | 38992 ft | 524 kts | 81° |
| 2026-04-29 16:43 | 40.22187 | 44.41974 | 38994 ft | 524 kts | 81° |
| 2026-04-29 16:43 | 40.23475 | 44.51385 | 38992 ft | 524 kts | 81° |
| 2026-04-29 16:44 | 40.24757 | 44.60787 | 39005 ft | 524 kts | 81° |
| 2026-04-29 16:44 | 40.26092 | 44.70160 | 39019 ft | 524 kts | 81° |
| 2026-04-29 16:45 | 40.27444 | 44.79555 | 39035 ft | 524 kts | 81° |
| 2026-04-29 16:45 | 40.28778 | 44.88935 | 39050 ft | 524 kts | 81° |
| 2026-04-29 16:46 | 40.30095 | 44.98311 | 39061 ft | 524 kts | 81° |
| 2026-04-29 16:46 | 40.31403 | 45.07691 | 39069 ft | 524 kts | 81° |
| 2026-04-29 16:47 | 40.32706 | 45.17091 | 39071 ft | 524 kts | 81° |
| 2026-04-29 16:47 | 40.33999 | 45.26481 | 39073 ft | 524 kts | 81° |
| 2026-04-29 16:48 | 40.35277 | 45.35807 | 39070 ft | 524 kts | 82° |
| 2026-04-29 16:48 | 40.36555 | 45.45203 | 39073 ft | 524 kts | 82° |
| 2026-04-29 16:49 | 40.37829 | 45.54620 | 39073 ft | 524 kts | 82° |
| 2026-04-29 16:49 | 40.39093 | 45.64029 | 39073 ft | 525 kts | 82° |
| 2026-04-29 16:50 | 40.40417 | 45.73442 | 39075 ft | 525 kts | 81° |
| 2026-04-29 16:50 | 40.41817 | 45.82854 | 39076 ft | 525 kts | 80° |
| 2026-04-29 16:51 | 40.43200 | 45.92257 | 39078 ft | 525 kts | 81° |
| 2026-04-29 16:51 | 40.44564 | 46.01691 | 39080 ft | 525 kts | 81° |
| 2026-04-29 16:52 | 40.45909 | 46.11100 | 39081 ft | 525 kts | 81° |
| 2026-04-29 16:52 | 40.47248 | 46.20520 | 39082 ft | 525 kts | 81° |
| 2026-04-29 16:53 | 40.48581 | 46.29963 | 39079 ft | 525 kts | 81° |
| 2026-04-29 16:53 | 40.49905 | 46.39391 | 39083 ft | 526 kts | 81° |
| 2026-04-29 16:54 | 40.51224 | 46.48834 | 39085 ft | 526 kts | 81° |
| 2026-04-29 16:54 | 40.52528 | 46.58230 | 39093 ft | 526 kts | 82° |
| 2026-04-29 16:55 | 40.53833 | 46.67697 | 39094 ft | 526 kts | 82° |
| 2026-04-29 16:55 | 40.55130 | 46.77165 | 39096 ft | 527 kts | 82° |
| 2026-04-29 16:56 | 40.56423 | 46.86661 | 39095 ft | 527 kts | 82° |
| 2026-04-29 16:56 | 40.57708 | 46.96163 | 39096 ft | 527 kts | 82° |
| 2026-04-29 16:57 | 40.58984 | 47.05656 | 39096 ft | 527 kts | 82° |
| 2026-04-29 16:57 | 40.60243 | 47.15162 | 39099 ft | 527 kts | 83° |
| 2026-04-29 16:58 | 40.60523 | 47.24738 | 39098 ft | 523 kts | 94° |
| 2026-04-29 16:58 | 40.60279 | 47.34289 | 39101 ft | 523 kts | 95° |
| 2026-04-29 16:59 | 40.59971 | 47.43832 | 39102 ft | 523 kts | 95° |
| 2026-04-29 16:59 | 40.59667 | 47.53414 | 39101 ft | 523 kts | 95° |
| 2026-04-29 17:00 | 40.59372 | 47.62983 | 39100 ft | 523 kts | 95° |
| 2026-04-29 17:00 | 40.59073 | 47.72550 | 39104 ft | 523 kts | 95° |
| 2026-04-29 17:01 | 40.58767 | 47.82055 | 39100 ft | 523 kts | 95° |
| 2026-04-29 17:01 | 40.58449 | 47.91685 | 39103 ft | 524 kts | 96° |
| 2026-04-29 17:02 | 40.58261 | 48.01208 | 39125 ft | 526 kts | 91° |
| 2026-04-29 17:02 | 40.58612 | 48.10825 | 39127 ft | 527 kts | 89° |
| 2026-04-29 17:03 | 40.59008 | 48.20439 | 39126 ft | 526 kts | 90° |
| 2026-04-29 17:03 | 40.59307 | 48.30068 | 39126 ft | 526 kts | 91° |
| 2026-04-29 17:04 | 40.59551 | 48.39685 | 39124 ft | 526 kts | 91° |
| 2026-04-29 17:04 | 40.59781 | 48.49314 | 39122 ft | 527 kts | 91° |
| 2026-04-29 17:05 | 40.60006 | 48.58950 | 39132 ft | 527 kts | 91° |
| 2026-04-29 17:05 | 40.60228 | 48.68602 | 39128 ft | 528 kts | 91° |
| 2026-04-29 17:06 | 40.60441 | 48.78255 | 39126 ft | 528 kts | 91° |
| 2026-04-29 17:06 | 40.60644 | 48.87902 | 39126 ft | 528 kts | 91° |
| 2026-04-29 17:07 | 40.60808 | 48.95938 | 39135 ft | 528 kts | 91° |
| 2026-04-29 17:07 | 40.61029 | 49.07230 | 39126 ft | 528 kts | 91° |
| 2026-04-29 17:08 | 40.61209 | 49.16840 | 39132 ft | 529 kts | 91° |
| 2026-04-29 17:08 | 40.61499 | 49.26521 | 39132 ft | 530 kts | 89° |
| 2026-04-29 17:09 | 40.62125 | 49.36182 | 39134 ft | 531 kts | 88° |
| 2026-04-29 17:09 | 40.62763 | 49.45863 | 39136 ft | 530 kts | 88° |
| 2026-04-29 17:10 | 40.63334 | 49.55550 | 39127 ft | 530 kts | 89° |
| 2026-04-29 17:10 | 40.63869 | 49.65223 | 39125 ft | 530 kts | 89° |
| 2026-04-29 17:11 | 40.64393 | 49.74917 | 39120 ft | 531 kts | 89° |
| 2026-04-29 17:11 | 40.64911 | 49.84618 | 39112 ft | 531 kts | 89° |
| 2026-04-29 17:12 | 40.65423 | 49.94315 | 39109 ft | 531 kts | 89° |
| 2026-04-29 17:12 | 40.65761 | 50.00804 | 39109 ft | 531 kts | 89° |
| 2026-04-29 17:13 | 40.66423 | 50.13722 | 39108 ft | 532 kts | 89° |
| 2026-04-29 17:13 | 40.66910 | 50.23426 | 39108 ft | 532 kts | 89° |
| 2026-04-29 17:14 | 40.67391 | 50.33164 | 39108 ft | 532 kts | 89° |
| 2026-04-29 17:14 | 40.67785 | 50.41261 | 39110 ft | 532 kts | 89° |
| 2026-04-29 17:15 | 40.68256 | 50.50986 | 39105 ft | 533 kts | 89° |
| 2026-04-29 17:15 | 40.68784 | 50.62317 | 39106 ft | 533 kts | 89° |
| 2026-04-29 17:16 | 40.69157 | 50.70491 | 39106 ft | 533 kts | 89° |
| 2026-04-29 17:16 | 40.69595 | 50.80207 | 39106 ft | 533 kts | 89° |
| 2026-04-29 17:17 | 40.70028 | 50.89965 | 39104 ft | 533 kts | 90° |
| 2026-04-29 17:17 | 40.70451 | 50.99697 | 39100 ft | 533 kts | 90° |
| 2026-04-29 17:18 | 40.70866 | 51.09424 | 39100 ft | 533 kts | 90° |
| 2026-04-29 17:18 | 40.71273 | 51.19140 | 39095 ft | 533 kts | 90° |
| 2026-04-29 17:19 | 40.71672 | 51.28880 | 39094 ft | 533 kts | 90° |
| 2026-04-29 17:19 | 40.72063 | 51.38629 | 39093 ft | 532 kts | 90° |
| 2026-04-29 17:20 | 40.72487 | 51.48377 | 39076 ft | 534 kts | 86° |
| 2026-04-29 17:20 | 40.73815 | 51.58007 | 39089 ft | 536 kts | 80° |
| 2026-04-29 17:21 | 40.75399 | 51.67619 | 39082 ft | 536 kts | 80° |
| 2026-04-29 17:21 | 40.77001 | 51.77218 | 39081 ft | 536 kts | 80° |
| 2026-04-29 17:22 | 40.78580 | 51.86822 | 39072 ft | 535 kts | 80° |
| 2026-04-29 17:22 | 40.80138 | 51.96422 | 39073 ft | 535 kts | 80° |
| 2026-04-29 17:23 | 40.81686 | 52.06029 | 39069 ft | 535 kts | 80° |
| 2026-04-29 17:23 | 40.83227 | 52.15641 | 39069 ft | 535 kts | 81° |
| 2026-04-29 17:24 | 40.84759 | 52.25248 | 39063 ft | 535 kts | 81° |
| 2026-04-29 17:24 | 40.86283 | 52.34855 | 39064 ft | 534 kts | 81° |
| 2026-04-29 17:25 | 40.87800 | 52.44477 | 39061 ft | 534 kts | 81° |
| 2026-04-29 17:25 | 40.89305 | 52.54072 | 39058 ft | 534 kts | 81° |
| 2026-04-29 17:26 | 40.90450 | 52.63742 | 39057 ft | 531 kts | 89° |
| 2026-04-29 17:26 | 40.90938 | 52.73459 | 39057 ft | 530 kts | 90° |
| 2026-04-29 17:27 | 40.91335 | 52.83193 | 39048 ft | 530 kts | 90° |
| 2026-04-29 17:27 | 40.91726 | 52.92923 | 39048 ft | 530 kts | 90° |
| 2026-04-29 17:28 | 40.92122 | 53.02653 | 39051 ft | 529 kts | 90° |
| 2026-04-29 17:28 | 40.92514 | 53.12376 | 39046 ft | 529 kts | 90° |
| 2026-04-29 17:29 | 40.92892 | 53.22073 | 39048 ft | 529 kts | 90° |
| 2026-04-29 17:29 | 40.93193 | 53.30145 | 39044 ft | 529 kts | 90° |
| 2026-04-29 17:30 | 40.93608 | 53.41502 | 39044 ft | 529 kts | 90° |
| 2026-04-29 17:30 | 40.93954 | 53.51158 | 39044 ft | 529 kts | 90° |
| 2026-04-29 17:31 | 40.94296 | 53.60935 | 39043 ft | 529 kts | 90° |
| 2026-04-29 17:31 | 40.94628 | 53.70663 | 39040 ft | 529 kts | 91° |
| 2026-04-29 17:32 | 40.94950 | 53.80308 | 39035 ft | 529 kts | 91° |
| 2026-04-29 17:32 | 40.95266 | 53.90042 | 39036 ft | 530 kts | 91° |
| 2026-04-29 17:33 | 40.95574 | 53.99791 | 39034 ft | 530 kts | 91° |
| 2026-04-29 17:33 | 40.95874 | 54.09529 | 39032 ft | 530 kts | 91° |
| 2026-04-29 17:34 | 40.96166 | 54.19280 | 39034 ft | 530 kts | 91° |
| 2026-04-29 17:34 | 40.96450 | 54.29025 | 39035 ft | 530 kts | 91° |
| 2026-04-29 17:35 | 40.96861 | 54.43661 | 39034 ft | 530 kts | 91° |
| 2026-04-29 17:36 | 40.97123 | 54.53389 | 39034 ft | 530 kts | 91° |
| 2026-04-29 17:36 | 40.97378 | 54.63126 | 39033 ft | 530 kts | 91° |
| 2026-04-29 17:37 | 40.97624 | 54.72875 | 39028 ft | 529 kts | 91° |
| 2026-04-29 17:37 | 40.97862 | 54.82603 | 39035 ft | 529 kts | 91° |
| 2026-04-29 17:38 | 40.98092 | 54.92312 | 39031 ft | 529 kts | 91° |
| 2026-04-29 17:38 | 40.98305 | 55.02041 | 39028 ft | 528 kts | 91° |
| 2026-04-29 17:39 | 40.98505 | 55.11751 | 39032 ft | 528 kts | 91° |
| 2026-04-29 17:39 | 40.98699 | 55.21464 | 39027 ft | 528 kts | 91° |
| 2026-04-29 17:40 | 40.98887 | 55.31168 | 39026 ft | 527 kts | 91° |
| 2026-04-29 17:40 | 40.99064 | 55.40807 | 39025 ft | 527 kts | 91° |
| 2026-04-29 17:41 | 40.99235 | 55.50519 | 39018 ft | 527 kts | 92° |
| 2026-04-29 17:41 | 40.99398 | 55.60205 | 39019 ft | 527 kts | 92° |
| 2026-04-29 17:42 | 40.99553 | 55.69905 | 39014 ft | 527 kts | 92° |
| 2026-04-29 17:42 | 40.99700 | 55.79597 | 39009 ft | 526 kts | 92° |
| 2026-04-29 17:43 | 40.99854 | 55.89284 | 39008 ft | 526 kts | 92° |
| 2026-04-29 17:43 | 41.00009 | 55.98962 | 39008 ft | 526 kts | 92° |
| 2026-04-29 17:44 | 41.00154 | 56.08650 | 39003 ft | 526 kts | 92° |
| 2026-04-29 17:44 | 41.00288 | 56.18291 | 39000 ft | 526 kts | 92° |
| 2026-04-29 17:45 | 41.00414 | 56.28026 | 38994 ft | 526 kts | 92° |
| 2026-04-29 17:45 | 41.00532 | 56.37719 | 39001 ft | 526 kts | 92° |
| 2026-04-29 17:46 | 41.00643 | 56.47413 | 38996 ft | 527 kts | 92° |
| 2026-04-29 17:46 | 41.01425 | 56.57058 | 38996 ft | 529 kts | 84° |
| 2026-04-29 17:47 | 41.02562 | 56.66710 | 38999 ft | 530 kts | 83° |
| 2026-04-29 17:47 | 41.03727 | 56.76317 | 38990 ft | 529 kts | 83° |
| 2026-04-29 17:48 | 41.04870 | 56.85898 | 38985 ft | 529 kts | 83° |
| 2026-04-29 17:48 | 41.06005 | 56.95573 | 38975 ft | 528 kts | 83° |
| 2026-04-29 17:49 | 41.07117 | 57.05143 | 38973 ft | 528 kts | 84° |
| 2026-04-29 17:49 | 41.08225 | 57.14755 | 38974 ft | 528 kts | 84° |
| 2026-04-29 17:50 | 41.09328 | 57.24385 | 38970 ft | 528 kts | 84° |
| 2026-04-29 17:50 | 41.10419 | 57.33989 | 38968 ft | 527 kts | 84° |
| 2026-04-29 17:51 | 41.11504 | 57.43605 | 38965 ft | 527 kts | 84° |
| 2026-04-29 17:51 | 41.12581 | 57.53227 | 38964 ft | 527 kts | 84° |
| 2026-04-29 17:52 | 41.13649 | 57.62853 | 38965 ft | 527 kts | 84° |
| 2026-04-29 17:52 | 41.14709 | 57.72470 | 38962 ft | 528 kts | 84° |
| 2026-04-29 17:53 | 41.15765 | 57.82130 | 38963 ft | 528 kts | 84° |
| 2026-04-29 17:53 | 41.16812 | 57.91791 | 38963 ft | 529 kts | 84° |
| 2026-04-29 17:54 | 41.17852 | 58.01454 | 38961 ft | 529 kts | 84° |
| 2026-04-29 17:54 | 41.18883 | 58.11115 | 38960 ft | 529 kts | 84° |
| 2026-04-29 17:55 | 41.19911 | 58.20808 | 38960 ft | 530 kts | 84° |
| 2026-04-29 17:55 | 41.20921 | 58.30429 | 38946 ft | 530 kts | 84° |
| 2026-04-29 17:56 | 41.21930 | 58.40118 | 38942 ft | 530 kts | 84° |
| 2026-04-29 17:56 | 41.22938 | 58.49872 | 38943 ft | 530 kts | 84° |
| 2026-04-29 17:57 | 41.23932 | 58.59581 | 38940 ft | 530 kts | 84° |
| 2026-04-29 17:57 | 41.24918 | 58.69281 | 38938 ft | 530 kts | 84° |
| 2026-04-29 17:58 | 41.25887 | 58.78905 | 38935 ft | 530 kts | 84° |
| 2026-04-29 17:58 | 41.26857 | 58.88619 | 38932 ft | 529 kts | 84° |
| 2026-04-29 17:59 | 41.27817 | 58.98321 | 38932 ft | 529 kts | 84° |
| 2026-04-29 17:59 | 41.28769 | 59.08025 | 38928 ft | 529 kts | 85° |
| 2026-04-29 18:00 | 41.29712 | 59.17715 | 38922 ft | 529 kts | 84° |
| 2026-04-29 18:00 | 41.30649 | 59.27437 | 38918 ft | 529 kts | 85° |
| 2026-04-29 18:01 | 41.31576 | 59.37146 | 38916 ft | 529 kts | 85° |
| 2026-04-29 18:01 | 41.32494 | 59.46846 | 38907 ft | 529 kts | 85° |
| 2026-04-29 18:02 | 41.33408 | 59.56584 | 38910 ft | 530 kts | 85° |
| 2026-04-29 18:02 | 41.34198 | 59.66311 | 38912 ft | 528 kts | 91° |
| 2026-04-29 18:03 | 41.34022 | 59.74386 | 38903 ft | 526 kts | 96° |
| 2026-04-29 18:03 | 41.33577 | 59.84110 | 38900 ft | 526 kts | 96° |
| 2026-04-29 18:04 | 41.33088 | 59.93811 | 38904 ft | 526 kts | 96° |
| 2026-04-29 18:04 | 41.32602 | 60.03525 | 38907 ft | 526 kts | 96° |
| 2026-04-29 18:05 | 41.32134 | 60.13224 | 38902 ft | 526 kts | 96° |
| 2026-04-29 18:05 | 41.31664 | 60.22959 | 38902 ft | 526 kts | 96° |
| 2026-04-29 18:06 | 41.31187 | 60.32670 | 38902 ft | 526 kts | 96° |
| 2026-04-29 18:06 | 41.30779 | 60.42359 | 38902 ft | 528 kts | 91° |
| 2026-04-29 18:07 | 41.31151 | 60.52144 | 38903 ft | 529 kts | 88° |
| 2026-04-29 18:07 | 41.31674 | 60.61846 | 38904 ft | 530 kts | 87° |
| 2026-04-29 18:08 | 41.32209 | 60.71606 | 38906 ft | 530 kts | 87° |
| 2026-04-29 18:08 | 41.32721 | 60.81389 | 38910 ft | 530 kts | 88° |
| 2026-04-29 18:09 | 41.33218 | 60.91200 | 38910 ft | 530 kts | 88° |
| 2026-04-29 18:09 | 41.33703 | 61.00974 | 38916 ft | 530 kts | 88° |
| 2026-04-29 18:10 | 41.34181 | 61.10774 | 38913 ft | 530 kts | 88° |
| 2026-04-29 18:10 | 41.34651 | 61.20562 | 38914 ft | 531 kts | 88° |
| 2026-04-29 18:11 | 41.35113 | 61.30368 | 38915 ft | 531 kts | 88° |
| 2026-04-29 18:11 | 41.35566 | 61.40151 | 38917 ft | 531 kts | 88° |
| 2026-04-29 18:12 | 41.36015 | 61.49992 | 38916 ft | 532 kts | 88° |
| 2026-04-29 18:12 | 41.36458 | 61.59836 | 38919 ft | 532 kts | 88° |
| 2026-04-29 18:13 | 41.36892 | 61.69674 | 38914 ft | 532 kts | 88° |
| 2026-04-29 18:13 | 41.37318 | 61.79501 | 38914 ft | 533 kts | 88° |
| 2026-04-29 18:14 | 41.37733 | 61.89294 | 38916 ft | 533 kts | 88° |
| 2026-04-29 18:14 | 41.38142 | 61.99150 | 38917 ft | 533 kts | 88° |
| 2026-04-29 18:15 | 41.38543 | 62.08995 | 38913 ft | 533 kts | 88° |
| 2026-04-29 18:15 | 41.38935 | 62.18839 | 38913 ft | 532 kts | 88° |
| 2026-04-29 18:16 | 41.39318 | 62.28671 | 38910 ft | 532 kts | 88° |
| 2026-04-29 18:16 | 41.39692 | 62.38498 | 38908 ft | 531 kts | 88° |
| 2026-04-29 18:17 | 41.40059 | 62.48327 | 38913 ft | 531 kts | 88° |
| 2026-04-29 18:17 | 41.40432 | 62.58134 | 38908 ft | 530 kts | 87° |
| 2026-04-29 18:18 | 41.40817 | 62.67926 | 38905 ft | 529 kts | 87° |
| 2026-04-29 18:18 | 41.41193 | 62.77710 | 38911 ft | 528 kts | 87° |
| 2026-04-29 18:19 | 41.41557 | 62.87470 | 38913 ft | 527 kts | 87° |
| 2026-04-29 18:19 | 41.41912 | 62.97230 | 38906 ft | 527 kts | 87° |
| 2026-04-29 18:20 | 41.42257 | 63.06954 | 38908 ft | 525 kts | 88° |
| 2026-04-29 18:20 | 41.42594 | 63.16671 | 38911 ft | 524 kts | 87° |
| 2026-04-29 18:21 | 41.42922 | 63.26366 | 38915 ft | 523 kts | 88° |
| 2026-04-29 18:21 | 41.43241 | 63.36052 | 38914 ft | 522 kts | 88° |
| 2026-04-29 18:22 | 41.43552 | 63.45714 | 38915 ft | 521 kts | 88° |
| 2026-04-29 18:22 | 41.43854 | 63.55342 | 38918 ft | 520 kts | 88° |
| 2026-04-29 18:23 | 41.44148 | 63.64984 | 38916 ft | 519 kts | 88° |
| 2026-04-29 18:23 | 41.44433 | 63.74588 | 38923 ft | 519 kts | 88° |
| 2026-04-29 18:24 | 41.44689 | 63.84192 | 38922 ft | 518 kts | 88° |
| 2026-04-29 18:24 | 41.44937 | 63.93780 | 38922 ft | 517 kts | 88° |
| 2026-04-29 18:25 | 41.45180 | 64.03347 | 38928 ft | 516 kts | 88° |
| 2026-04-29 18:25 | 41.45417 | 64.12906 | 38925 ft | 516 kts | 88° |
| 2026-04-29 18:26 | 41.45647 | 64.22467 | 38929 ft | 515 kts | 88° |
| 2026-04-29 18:26 | 41.45866 | 64.31946 | 38930 ft | 515 kts | 88° |
| 2026-04-29 18:27 | 41.46079 | 64.41483 | 38931 ft | 515 kts | 88° |
| 2026-04-29 18:27 | 41.46284 | 64.51015 | 38930 ft | 514 kts | 88° |
| 2026-04-29 18:28 | 41.46482 | 64.60598 | 38929 ft | 514 kts | 88° |
| 2026-04-29 18:28 | 41.46671 | 64.70147 | 38926 ft | 514 kts | 88° |
| 2026-04-29 18:29 | 41.46852 | 64.79669 | 38928 ft | 514 kts | 89° |
| 2026-04-29 18:29 | 41.47024 | 64.89104 | 38922 ft | 513 kts | 89° |
| 2026-04-29 18:30 | 41.47190 | 64.98630 | 38919 ft | 513 kts | 89° |
| 2026-04-29 18:30 | 41.47347 | 65.08132 | 38916 ft | 513 kts | 89° |
| 2026-04-29 18:31 | 41.47496 | 65.17644 | 38915 ft | 513 kts | 89° |
| 2026-04-29 18:31 | 41.47638 | 65.27158 | 38914 ft | 513 kts | 89° |
| 2026-04-29 18:32 | 41.47772 | 65.36668 | 38916 ft | 512 kts | 89° |
| 2026-04-29 18:32 | 41.47957 | 65.50898 | 38915 ft | 512 kts | 89° |
| 2026-04-29 18:33 | 41.48071 | 65.60394 | 38911 ft | 512 kts | 89° |
| 2026-04-29 18:33 | 41.48178 | 65.69893 | 38912 ft | 512 kts | 89° |
| 2026-04-29 18:34 | 41.48260 | 65.77794 | 38912 ft | 512 kts | 89° |
| 2026-04-29 18:34 | 41.48331 | 65.88886 | 38911 ft | 512 kts | 90° |
| 2026-04-29 18:35 | 41.48339 | 65.98398 | 38911 ft | 512 kts | 90° |
| 2026-04-29 18:35 | 41.48344 | 66.07835 | 38911 ft | 512 kts | 90° |
| 2026-04-29 18:36 | 41.48349 | 66.17324 | 38912 ft | 512 kts | 90° |
| 2026-04-29 18:36 | 41.48349 | 66.26825 | 38909 ft | 512 kts | 90° |
| 2026-04-29 18:37 | 41.48341 | 66.36324 | 38908 ft | 512 kts | 90° |
| 2026-04-29 18:37 | 41.48325 | 66.45816 | 38910 ft | 512 kts | 90° |
| 2026-04-29 18:38 | 41.48301 | 66.55322 | 38910 ft | 512 kts | 90° |
| 2026-04-29 18:38 | 41.47707 | 66.64755 | 38910 ft | 511 kts | 100° |
| 2026-04-29 18:39 | 41.46417 | 66.74071 | 38906 ft | 511 kts | 102° |
| 2026-04-29 18:39 | 41.45033 | 66.83376 | 38906 ft | 511 kts | 102° |
| 2026-04-29 18:40 | 41.43646 | 66.92681 | 38902 ft | 512 kts | 102° |
| 2026-04-29 18:40 | 41.42267 | 67.01976 | 38902 ft | 512 kts | 102° |
| 2026-04-29 18:41 | 41.39492 | 67.20595 | 38906 ft | 513 kts | 102° |
| 2026-04-29 18:42 | 41.38092 | 67.29905 | 38906 ft | 513 kts | 102° |
| 2026-04-29 18:42 | 41.36682 | 67.39227 | 38909 ft | 513 kts | 102° |
| 2026-04-29 18:43 | 41.35276 | 67.48467 | 38905 ft | 513 kts | 102° |
| 2026-04-29 18:43 | 41.33850 | 67.57789 | 38904 ft | 513 kts | 102° |
| 2026-04-29 18:44 | 41.32419 | 67.67091 | 38902 ft | 513 kts | 102° |
| 2026-04-29 18:44 | 41.30982 | 67.76373 | 38910 ft | 513 kts | 102° |
| 2026-04-29 18:45 | 41.29535 | 67.85671 | 38897 ft | 513 kts | 102° |
| 2026-04-29 18:45 | 41.28227 | 67.94996 | 38910 ft | 514 kts | 98° |
| 2026-04-29 18:46 | 41.27342 | 68.04423 | 38904 ft | 513 kts | 97° |
| 2026-04-29 18:46 | 41.26506 | 68.13826 | 38912 ft | 513 kts | 97° |
| 2026-04-29 18:47 | 41.25668 | 68.23238 | 38906 ft | 513 kts | 97° |
| 2026-04-29 18:47 | 41.24816 | 68.32647 | 38915 ft | 512 kts | 97° |
| 2026-04-29 18:48 | 41.23959 | 68.41985 | 38920 ft | 512 kts | 97° |
| 2026-04-29 18:48 | 41.23091 | 68.51359 | 38916 ft | 512 kts | 97° |
| 2026-04-29 18:49 | 41.22215 | 68.60740 | 38915 ft | 512 kts | 97° |
| 2026-04-29 18:49 | 41.21331 | 68.70116 | 38923 ft | 511 kts | 97° |
| 2026-04-29 18:50 | 41.20441 | 68.79474 | 38920 ft | 511 kts | 97° |
| 2026-04-29 18:50 | 41.19542 | 68.88851 | 38923 ft | 511 kts | 98° |
| 2026-04-29 18:51 | 41.19087 | 68.98255 | 38917 ft | 511 kts | 92° |
| 2026-04-29 18:51 | 41.18835 | 69.07659 | 38926 ft | 510 kts | 92° |
| 2026-04-29 18:52 | 41.18642 | 69.15487 | 38922 ft | 510 kts | 92° |
| 2026-04-29 18:52 | 41.18390 | 69.24916 | 38935 ft | 510 kts | 93° |
| 2026-04-29 18:53 | 41.17708 | 69.34264 | 38937 ft | 510 kts | 97° |
| 2026-04-29 18:53 | 41.16812 | 69.43601 | 38942 ft | 510 kts | 97° |
| 2026-04-29 18:54 | 41.15970 | 69.52962 | 38951 ft | 510 kts | 97° |
| 2026-04-29 18:54 | 41.15180 | 69.62297 | 38967 ft | 510 kts | 96° |
| 2026-04-29 18:55 | 41.14399 | 69.71638 | 38978 ft | 510 kts | 97° |
| 2026-04-29 18:55 | 41.13608 | 69.80982 | 38992 ft | 510 kts | 97° |
| 2026-04-29 18:56 | 41.12807 | 69.90331 | 39007 ft | 510 kts | 97° |
| 2026-04-29 18:56 | 41.11997 | 69.99679 | 39020 ft | 509 kts | 97° |
| 2026-04-29 18:57 | 41.11182 | 70.08998 | 39030 ft | 509 kts | 97° |
| 2026-04-29 18:57 | 41.10356 | 70.18342 | 39039 ft | 510 kts | 97° |
| 2026-04-29 18:58 | 41.10126 | 70.27720 | 39045 ft | 510 kts | 86° |
| 2026-04-29 18:58 | 41.10732 | 70.37086 | 39051 ft | 510 kts | 84° |
| 2026-04-29 18:59 | 41.11445 | 70.46443 | 39051 ft | 511 kts | 84° |
| 2026-04-29 18:59 | 41.12142 | 70.55761 | 39045 ft | 511 kts | 84° |
| 2026-04-29 19:00 | 41.12818 | 70.65185 | 39048 ft | 511 kts | 84° |
| 2026-04-29 19:00 | 41.13480 | 70.74587 | 39050 ft | 511 kts | 84° |
| 2026-04-29 19:01 | 41.14133 | 70.83978 | 39040 ft | 511 kts | 84° |
| 2026-04-29 19:01 | 41.14768 | 70.93309 | 39023 ft | 512 kts | 84° |
| 2026-04-29 19:02 | 41.15300 | 71.01184 | 39020 ft | 512 kts | 84° |
| 2026-04-29 19:02 | 41.16031 | 71.12126 | 39013 ft | 512 kts | 85° |
| 2026-04-29 19:03 | 41.16650 | 71.21522 | 38990 ft | 511 kts | 85° |
| 2026-04-29 19:03 | 41.17263 | 71.30921 | 38982 ft | 511 kts | 85° |
| 2026-04-29 19:04 | 41.17867 | 71.40312 | 38976 ft | 511 kts | 85° |
| 2026-04-29 19:04 | 41.18464 | 71.49710 | 38970 ft | 510 kts | 85° |
| 2026-04-29 19:05 | 41.19052 | 71.59091 | 38965 ft | 510 kts | 85° |
| 2026-04-29 19:05 | 41.19634 | 71.68496 | 38968 ft | 510 kts | 85° |
| 2026-04-29 19:06 | 41.20206 | 71.77864 | 38967 ft | 510 kts | 85° |
| 2026-04-29 19:07 | 41.21049 | 71.91952 | 38968 ft | 510 kts | 85° |
| 2026-04-29 19:07 | 41.21599 | 72.01360 | 38971 ft | 511 kts | 85° |
| 2026-04-29 19:08 | 41.22141 | 72.10763 | 38973 ft | 511 kts | 85° |
| 2026-04-29 19:08 | 41.22676 | 72.20165 | 38978 ft | 511 kts | 85° |
| 2026-04-29 19:09 | 41.23210 | 72.29581 | 38985 ft | 511 kts | 85° |
| 2026-04-29 19:09 | 41.23740 | 72.38994 | 38988 ft | 511 kts | 85° |
| 2026-04-29 19:10 | 41.24265 | 72.48433 | 38999 ft | 511 kts | 85° |
| 2026-04-29 19:10 | 41.24779 | 72.57837 | 39010 ft | 511 kts | 85° |
| 2026-04-29 19:11 | 41.25286 | 72.67263 | 39019 ft | 511 kts | 85° |
| 2026-04-29 19:11 | 41.25775 | 72.76688 | 39026 ft | 511 kts | 85° |
| 2026-04-29 19:12 | 41.26258 | 72.86142 | 39035 ft | 512 kts | 85° |
| 2026-04-29 19:12 | 41.26733 | 72.95568 | 39039 ft | 511 kts | 85° |
| 2026-04-29 19:13 | 41.27200 | 73.04950 | 39048 ft | 512 kts | 85° |
| 2026-04-29 19:13 | 41.27664 | 73.14438 | 39060 ft | 512 kts | 85° |
| 2026-04-29 19:14 | 41.28115 | 73.23813 | 39061 ft | 512 kts | 85° |
| 2026-04-29 19:14 | 41.28561 | 73.33275 | 39069 ft | 512 kts | 85° |
| 2026-04-29 19:15 | 41.29000 | 73.42716 | 39081 ft | 512 kts | 85° |
| 2026-04-29 19:15 | 41.29430 | 73.52147 | 39085 ft | 511 kts | 85° |
| 2026-04-29 19:16 | 41.29854 | 73.61598 | 39092 ft | 511 kts | 85° |
| 2026-04-29 19:16 | 41.30269 | 73.71031 | 39098 ft | 512 kts | 85° |
| 2026-04-29 19:17 | 41.30676 | 73.80477 | 39096 ft | 512 kts | 85° |
| 2026-04-29 19:17 | 41.31075 | 73.89932 | 39102 ft | 512 kts | 86° |
| 2026-04-29 19:18 | 41.31466 | 73.99354 | 39101 ft | 512 kts | 86° |
| 2026-04-29 19:18 | 41.31990 | 74.08824 | 39102 ft | 512 kts | 83° |
| 2026-04-29 19:19 | 41.32733 | 74.18220 | 39108 ft | 512 kts | 83° |
| 2026-04-29 19:19 | 41.33462 | 74.27642 | 39103 ft | 512 kts | 83° |
| 2026-04-29 19:20 | 41.34142 | 74.37083 | 39106 ft | 512 kts | 83° |
| 2026-04-29 19:20 | 41.34794 | 74.46492 | 39100 ft | 511 kts | 83° |
| 2026-04-29 19:21 | 41.35434 | 74.55861 | 39104 ft | 511 kts | 83° |
| 2026-04-29 19:21 | 41.36072 | 74.65280 | 39103 ft | 511 kts | 83° |
| 2026-04-29 19:22 | 41.36704 | 74.74690 | 39099 ft | 510 kts | 83° |
| 2026-04-29 19:22 | 41.37326 | 74.84095 | 39098 ft | 510 kts | 83° |
| 2026-04-29 19:23 | 41.37942 | 74.93499 | 39098 ft | 510 kts | 83° |
| 2026-04-29 19:23 | 41.38549 | 75.02899 | 39095 ft | 510 kts | 83° |
| 2026-04-29 19:24 | 41.39149 | 75.12321 | 39101 ft | 510 kts | 83° |
| 2026-04-29 19:24 | 41.39741 | 75.21720 | 39100 ft | 510 kts | 83° |
| 2026-04-29 19:25 | 41.40324 | 75.31119 | 39092 ft | 510 kts | 84° |
| 2026-04-29 19:25 | 41.40902 | 75.40550 | 39089 ft | 510 kts | 84° |
| 2026-04-29 19:26 | 41.41471 | 75.49974 | 39094 ft | 511 kts | 84° |
| 2026-04-29 19:26 | 41.42033 | 75.59386 | 39088 ft | 511 kts | 84° |
| 2026-04-29 19:27 | 41.42588 | 75.68831 | 39072 ft | 511 kts | 84° |
| 2026-04-29 19:27 | 41.43136 | 75.78281 | 39078 ft | 511 kts | 84° |
| 2026-04-29 19:28 | 41.43673 | 75.87656 | 39081 ft | 511 kts | 84° |
| 2026-04-29 19:28 | 41.44207 | 75.97112 | 39078 ft | 511 kts | 84° |
| 2026-04-29 19:29 | 41.44733 | 76.06563 | 39080 ft | 511 kts | 84° |
| 2026-04-29 19:29 | 41.45250 | 76.16004 | 39085 ft | 511 kts | 84° |
| 2026-04-29 19:30 | 41.45762 | 76.25480 | 39106 ft | 511 kts | 84° |
| 2026-04-29 19:30 | 41.46264 | 76.34925 | 39097 ft | 512 kts | 84° |
| 2026-04-29 19:31 | 41.46759 | 76.44392 | 39101 ft | 511 kts | 84° |
| 2026-04-29 19:31 | 41.47246 | 76.53838 | 39119 ft | 511 kts | 85° |
| 2026-04-29 19:32 | 41.47725 | 76.63284 | 39112 ft | 511 kts | 85° |
| 2026-04-29 19:32 | 41.48196 | 76.72737 | 39126 ft | 511 kts | 85° |
| 2026-04-29 19:33 | 41.48658 | 76.82184 | 39132 ft | 510 kts | 85° |
| 2026-04-29 19:33 | 41.49112 | 76.91610 | 39124 ft | 510 kts | 85° |
| 2026-04-29 19:34 | 41.49560 | 77.01065 | 39141 ft | 511 kts | 85° |
| 2026-04-29 19:34 | 41.49999 | 77.10488 | 39135 ft | 510 kts | 85° |
| 2026-04-29 19:35 | 41.50432 | 77.19938 | 39141 ft | 509 kts | 85° |
| 2026-04-29 19:35 | 41.50856 | 77.29365 | 39145 ft | 509 kts | 86° |
| 2026-04-29 19:36 | 41.51272 | 77.38792 | 39145 ft | 509 kts | 86° |
| 2026-04-29 19:36 | 41.51678 | 77.48200 | 39152 ft | 509 kts | 86° |
| 2026-04-29 19:37 | 41.52079 | 77.57633 | 39151 ft | 509 kts | 86° |
| 2026-04-29 19:37 | 41.52471 | 77.67049 | 39152 ft | 509 kts | 86° |
| 2026-04-29 19:38 | 41.52856 | 77.76489 | 39156 ft | 509 kts | 86° |
| 2026-04-29 19:38 | 41.53233 | 77.85922 | 39153 ft | 509 kts | 86° |
| 2026-04-29 19:39 | 41.53539 | 77.93746 | 39153 ft | 509 kts | 86° |
| 2026-04-29 19:39 | 41.53902 | 78.03181 | 39153 ft | 509 kts | 86° |
| 2026-04-29 19:40 | 41.54315 | 78.14158 | 39154 ft | 509 kts | 87° |
| 2026-04-29 19:40 | 41.54606 | 78.22059 | 39152 ft | 509 kts | 87° |
| 2026-04-29 19:41 | 41.54946 | 78.31489 | 39144 ft | 510 kts | 87° |
| 2026-04-29 19:41 | 41.55280 | 78.40973 | 39148 ft | 510 kts | 87° |
| 2026-04-29 19:42 | 41.55603 | 78.50382 | 39144 ft | 511 kts | 87° |
| 2026-04-29 19:42 | 41.55920 | 78.59827 | 39138 ft | 511 kts | 87° |
| 2026-04-29 19:43 | 41.56230 | 78.69304 | 39132 ft | 511 kts | 87° |
| 2026-04-29 19:43 | 41.56522 | 78.78815 | 39116 ft | 512 kts | 88° |
| 2026-04-29 19:44 | 41.55697 | 78.88230 | 39104 ft | 511 kts | 103° |
| 2026-04-29 19:44 | 41.53950 | 78.97459 | 39080 ft | 512 kts | 105° |
| 2026-04-29 19:45 | 41.52085 | 79.06630 | 39051 ft | 512 kts | 106° |
| 2026-04-29 19:45 | 41.50221 | 79.15801 | 39019 ft | 513 kts | 105° |
| 2026-04-29 19:46 | 41.48371 | 79.24984 | 38994 ft | 513 kts | 105° |
| 2026-04-29 19:46 | 41.46520 | 79.34178 | 38973 ft | 513 kts | 105° |
| 2026-04-29 19:47 | 41.44668 | 79.43326 | 38953 ft | 513 kts | 106° |
| 2026-04-29 19:47 | 41.42794 | 79.52537 | 38941 ft | 513 kts | 106° |
| 2026-04-29 19:48 | 41.40924 | 79.61691 | 38934 ft | 513 kts | 106° |
| 2026-04-29 19:48 | 41.39040 | 79.70864 | 38928 ft | 513 kts | 106° |
| 2026-04-29 19:49 | 41.37169 | 79.79941 | 38918 ft | 512 kts | 106° |
| 2026-04-29 19:49 | 41.35274 | 79.89090 | 38909 ft | 512 kts | 106° |
| 2026-04-29 19:50 | 41.33376 | 79.98213 | 38903 ft | 512 kts | 106° |
| 2026-04-29 19:50 | 41.31463 | 80.07367 | 38896 ft | 512 kts | 106° |
| 2026-04-29 19:51 | 41.29548 | 80.16492 | 38892 ft | 512 kts | 106° |
| 2026-04-29 19:51 | 41.27628 | 80.25604 | 38887 ft | 512 kts | 106° |
| 2026-04-29 19:52 | 41.25699 | 80.34719 | 38885 ft | 512 kts | 106° |
| 2026-04-29 19:52 | 41.23754 | 80.43819 | 38885 ft | 512 kts | 107° |
| 2026-04-29 19:53 | 41.21793 | 80.52924 | 38882 ft | 513 kts | 107° |
| 2026-04-29 19:53 | 41.19823 | 80.62037 | 38881 ft | 514 kts | 107° |
| 2026-04-29 19:54 | 41.16853 | 80.75721 | 38878 ft | 515 kts | 107° |
| 2026-04-29 19:54 | 41.14856 | 80.84870 | 38877 ft | 516 kts | 107° |
| 2026-04-29 19:55 | 41.12855 | 80.94006 | 38875 ft | 517 kts | 107° |
| 2026-04-29 19:55 | 41.10838 | 81.03172 | 38873 ft | 518 kts | 107° |
| 2026-04-29 19:56 | 41.08815 | 81.12331 | 38867 ft | 518 kts | 107° |
| 2026-04-29 19:56 | 41.06781 | 81.21498 | 38867 ft | 519 kts | 107° |
| 2026-04-29 19:57 | 41.05078 | 81.29142 | 38866 ft | 520 kts | 107° |
| 2026-04-29 19:57 | 41.02676 | 81.39884 | 38866 ft | 521 kts | 107° |
| 2026-04-29 19:58 | 41.00612 | 81.49071 | 38866 ft | 522 kts | 107° |
| 2026-04-29 19:58 | 40.98536 | 81.58273 | 38864 ft | 522 kts | 108° |
| 2026-04-29 19:59 | 40.96447 | 81.67496 | 38860 ft | 523 kts | 108° |
| 2026-04-29 19:59 | 40.94582 | 81.76819 | 38862 ft | 524 kts | 104° |
| 2026-04-29 20:00 | 40.92897 | 81.86156 | 38864 ft | 525 kts | 104° |
| 2026-04-29 20:00 | 40.91165 | 81.95526 | 38862 ft | 526 kts | 105° |
| 2026-04-29 20:01 | 40.89376 | 82.04922 | 38863 ft | 527 kts | 105° |
| 2026-04-29 20:01 | 40.87568 | 82.14295 | 38864 ft | 527 kts | 105° |
| 2026-04-29 20:02 | 40.85750 | 82.23681 | 38866 ft | 528 kts | 105° |
| 2026-04-29 20:02 | 40.84217 | 82.31567 | 38865 ft | 528 kts | 105° |
| 2026-04-29 20:03 | 40.82088 | 82.42473 | 38868 ft | 528 kts | 105° |
| 2026-04-29 20:03 | 40.80247 | 82.51856 | 38867 ft | 529 kts | 105° |
| 2026-04-29 20:04 | 40.78393 | 82.61265 | 38868 ft | 529 kts | 105° |
| 2026-04-29 20:04 | 40.76534 | 82.70652 | 38867 ft | 529 kts | 105° |
| 2026-04-29 20:05 | 40.74668 | 82.80030 | 38871 ft | 530 kts | 106° |
| 2026-04-29 20:05 | 40.72786 | 82.89447 | 38867 ft | 530 kts | 106° |
| 2026-04-29 20:06 | 40.70901 | 82.98832 | 38867 ft | 530 kts | 106° |
| 2026-04-29 20:06 | 40.69003 | 83.08242 | 38865 ft | 531 kts | 106° |
| 2026-04-29 20:07 | 40.67100 | 83.17632 | 38859 ft | 531 kts | 106° |
| 2026-04-29 20:07 | 40.65187 | 83.27032 | 38857 ft | 532 kts | 106° |
| 2026-04-29 20:08 | 40.63587 | 83.34856 | 38857 ft | 532 kts | 106° |
| 2026-04-29 20:08 | 40.61330 | 83.45847 | 38852 ft | 533 kts | 107° |
| 2026-04-29 20:09 | 40.59388 | 83.55260 | 38855 ft | 533 kts | 107° |
| 2026-04-29 20:09 | 40.57436 | 83.64675 | 38854 ft | 534 kts | 107° |
| 2026-04-29 20:10 | 40.55484 | 83.74046 | 38850 ft | 534 kts | 107° |
| 2026-04-29 20:10 | 40.53506 | 83.83507 | 38852 ft | 534 kts | 107° |
| 2026-04-29 20:11 | 40.51537 | 83.92877 | 38849 ft | 535 kts | 107° |
| 2026-04-29 20:11 | 40.49596 | 84.02311 | 38853 ft | 535 kts | 106° |
| 2026-04-29 20:12 | 40.47695 | 84.11767 | 38851 ft | 535 kts | 106° |
| 2026-04-29 20:12 | 40.45785 | 84.21202 | 38853 ft | 535 kts | 107° |
| 2026-04-29 20:13 | 40.44167 | 84.29121 | 38850 ft | 535 kts | 107° |
| 2026-04-29 20:13 | 40.41916 | 84.40066 | 38847 ft | 535 kts | 107° |
| 2026-04-29 20:14 | 40.39968 | 84.49493 | 38849 ft | 535 kts | 107° |
| 2026-04-29 20:14 | 40.38012 | 84.58914 | 38848 ft | 535 kts | 107° |
| 2026-04-29 20:15 | 40.36049 | 84.68326 | 38847 ft | 536 kts | 107° |
| 2026-04-29 20:15 | 40.34079 | 84.77736 | 38846 ft | 536 kts | 107° |
| 2026-04-29 20:16 | 40.32091 | 84.87183 | 38848 ft | 537 kts | 107° |
| 2026-04-29 20:16 | 40.30099 | 84.96612 | 38845 ft | 538 kts | 108° |
| 2026-04-29 20:17 | 40.28109 | 85.05987 | 38847 ft | 538 kts | 108° |
| 2026-04-29 20:17 | 40.26082 | 85.15498 | 38845 ft | 538 kts | 108° |
| 2026-04-29 20:18 | 40.24063 | 85.24926 | 38841 ft | 538 kts | 108° |
| 2026-04-29 20:18 | 40.22048 | 85.34295 | 38845 ft | 538 kts | 108° |
| 2026-04-29 20:19 | 40.20011 | 85.43726 | 38853 ft | 539 kts | 108° |
| 2026-04-29 20:19 | 40.17967 | 85.53148 | 38855 ft | 539 kts | 108° |
| 2026-04-29 20:20 | 40.15915 | 85.62565 | 38855 ft | 539 kts | 108° |
| 2026-04-29 20:20 | 40.13854 | 85.71985 | 38859 ft | 539 kts | 108° |
| 2026-04-29 20:21 | 40.11787 | 85.81390 | 38861 ft | 539 kts | 108° |
| 2026-04-29 20:21 | 40.09708 | 85.90812 | 38864 ft | 539 kts | 109° |
| 2026-04-29 20:22 | 40.07622 | 86.00228 | 38874 ft | 540 kts | 109° |
| 2026-04-29 20:22 | 40.05299 | 86.09512 | 38864 ft | 538 kts | 113° |
| 2026-04-29 20:23 | 40.02691 | 86.18677 | 38882 ft | 539 kts | 114° |
| 2026-04-29 20:23 | 40.00099 | 86.27864 | 38881 ft | 540 kts | 113° |
| 2026-04-29 20:24 | 39.97556 | 86.37073 | 38887 ft | 540 kts | 113° |
| 2026-04-29 20:24 | 39.95023 | 86.46295 | 38885 ft | 541 kts | 113° |
| 2026-04-29 20:25 | 39.92500 | 86.55451 | 38881 ft | 541 kts | 114° |
| 2026-04-29 20:25 | 39.89943 | 86.64684 | 38884 ft | 542 kts | 114° |
| 2026-04-29 20:26 | 39.87373 | 86.73928 | 38899 ft | 543 kts | 114° |
| 2026-04-29 20:26 | 39.84799 | 86.83154 | 38900 ft | 543 kts | 114° |
| 2026-04-29 20:27 | 39.83070 | 86.89327 | 38894 ft | 543 kts | 114° |
| 2026-04-29 20:27 | 39.79618 | 87.01621 | 38895 ft | 543 kts | 114° |
| 2026-04-29 20:28 | 39.77437 | 87.09353 | 38894 ft | 544 kts | 114° |
| 2026-04-29 20:28 | 39.74840 | 87.18534 | 38900 ft | 544 kts | 114° |
| 2026-04-29 20:29 | 39.72208 | 87.27802 | 38901 ft | 544 kts | 115° |
| 2026-04-29 20:29 | 39.69579 | 87.37028 | 38902 ft | 544 kts | 115° |
| 2026-04-29 20:30 | 39.66966 | 87.46167 | 38905 ft | 544 kts | 115° |
| 2026-04-29 20:30 | 39.64326 | 87.55370 | 38906 ft | 544 kts | 115° |
| 2026-04-29 20:31 | 39.61676 | 87.64576 | 38896 ft | 544 kts | 115° |
| 2026-04-29 20:31 | 39.60340 | 87.69206 | 38683 ft | 542 kts | 115° |
| 2026-04-29 20:31 | 39.59034 | 87.73727 | 38436 ft | 541 kts | 116° |
| 2026-04-29 20:32 | 39.57715 | 87.78273 | 38157 ft | 541 kts | 116° |
| 2026-04-29 20:32 | 39.56398 | 87.82801 | 37882 ft | 542 kts | 116° |
| 2026-04-29 20:32 | 39.55054 | 87.87415 | 37615 ft | 543 kts | 116° |
| 2026-04-29 20:32 | 39.53715 | 87.92009 | 37359 ft | 543 kts | 115° |
| 2026-04-29 20:33 | 39.52380 | 87.96581 | 37088 ft | 544 kts | 115° |
| 2026-04-29 20:33 | 39.51042 | 88.01156 | 37011 ft | 544 kts | 115° |
| 2026-04-29 20:33 | 39.48359 | 88.10315 | 37010 ft | 544 kts | 115° |
| 2026-04-29 20:34 | 39.45670 | 88.19466 | 37010 ft | 544 kts | 116° |
| 2026-04-29 20:34 | 39.42976 | 88.28600 | 37008 ft | 543 kts | 116° |
| 2026-04-29 20:35 | 39.40275 | 88.37724 | 37011 ft | 543 kts | 116° |
| 2026-04-29 20:35 | 39.37562 | 88.46853 | 37014 ft | 543 kts | 116° |
| 2026-04-29 20:36 | 39.34852 | 88.55945 | 37015 ft | 543 kts | 116° |
| 2026-04-29 20:36 | 39.32134 | 88.65034 | 37017 ft | 543 kts | 116° |
| 2026-04-29 20:37 | 39.29406 | 88.74125 | 37020 ft | 542 kts | 116° |
| 2026-04-29 20:37 | 39.26693 | 88.83137 | 37027 ft | 542 kts | 116° |
| 2026-04-29 20:38 | 39.23956 | 88.92196 | 37032 ft | 542 kts | 116° |
| 2026-04-29 20:38 | 39.21210 | 89.01259 | 37038 ft | 542 kts | 116° |
| 2026-04-29 20:39 | 39.18458 | 89.10306 | 37041 ft | 542 kts | 116° |
| 2026-04-29 20:39 | 39.15703 | 89.19338 | 37050 ft | 542 kts | 116° |
| 2026-04-29 20:40 | 39.12938 | 89.28370 | 37057 ft | 542 kts | 117° |
| 2026-04-29 20:40 | 39.10174 | 89.37368 | 37064 ft | 541 kts | 117° |
| 2026-04-29 20:41 | 39.07393 | 89.46394 | 37074 ft | 541 kts | 117° |
| 2026-04-29 20:41 | 39.04610 | 89.55395 | 37080 ft | 541 kts | 117° |
| 2026-04-29 20:42 | 39.01822 | 89.64384 | 37084 ft | 541 kts | 117° |
| 2026-04-29 20:42 | 38.99027 | 89.73365 | 37085 ft | 542 kts | 117° |
| 2026-04-29 20:43 | 38.96209 | 89.82387 | 37092 ft | 543 kts | 117° |
| 2026-04-29 20:43 | 38.93400 | 89.91360 | 37093 ft | 542 kts | 117° |
| 2026-04-29 20:44 | 38.90568 | 90.00367 | 37102 ft | 543 kts | 117° |
| 2026-04-29 20:44 | 38.87734 | 90.09358 | 37102 ft | 544 kts | 117° |
| 2026-04-29 20:45 | 38.84891 | 90.18347 | 37103 ft | 544 kts | 117° |
| 2026-04-29 20:45 | 38.82035 | 90.27347 | 37120 ft | 544 kts | 117° |
| 2026-04-29 20:46 | 38.79179 | 90.36325 | 37115 ft | 544 kts | 117° |
| 2026-04-29 20:46 | 38.76319 | 90.45292 | 37129 ft | 543 kts | 117° |
| 2026-04-29 20:47 | 38.73451 | 90.54245 | 37129 ft | 543 kts | 117° |
| 2026-04-29 20:47 | 38.70598 | 90.63129 | 37113 ft | 543 kts | 117° |
| 2026-04-29 20:48 | 38.67706 | 90.72117 | 37116 ft | 543 kts | 117° |
| 2026-04-29 20:48 | 38.65100 | 90.81212 | 37112 ft | 545 kts | 114° |
| 2026-04-29 20:49 | 38.62654 | 90.90331 | 37101 ft | 545 kts | 114° |
| 2026-04-29 20:49 | 38.60129 | 90.99535 | 37074 ft | 545 kts | 114° |
| 2026-04-29 20:50 | 38.57574 | 91.08653 | 37081 ft | 545 kts | 114° |
| 2026-04-29 20:50 | 38.55018 | 91.17691 | 37071 ft | 545 kts | 114° |
| 2026-04-29 20:51 | 38.52442 | 91.26775 | 37054 ft | 544 kts | 114° |
| 2026-04-29 20:51 | 38.49857 | 91.35868 | 37045 ft | 544 kts | 114° |
| 2026-04-29 20:52 | 38.47270 | 91.44943 | 37040 ft | 544 kts | 114° |
| 2026-04-29 20:52 | 38.44676 | 91.54011 | 37030 ft | 544 kts | 114° |
| 2026-04-29 20:53 | 38.42074 | 91.63072 | 37024 ft | 544 kts | 114° |
| 2026-04-29 20:53 | 38.39464 | 91.72133 | 37025 ft | 544 kts | 114° |
| 2026-04-29 20:54 | 38.35540 | 91.85692 | 37025 ft | 543 kts | 114° |
| 2026-04-29 20:55 | 38.32918 | 91.94718 | 37024 ft | 543 kts | 114° |
| 2026-04-29 20:55 | 38.30296 | 92.03712 | 37025 ft | 542 kts | 114° |
| 2026-04-29 20:56 | 38.27679 | 92.12659 | 37031 ft | 542 kts | 114° |
| 2026-04-29 20:56 | 38.25044 | 92.21639 | 37034 ft | 542 kts | 114° |
| 2026-04-29 20:57 | 38.22400 | 92.30621 | 37036 ft | 542 kts | 114° |
| 2026-04-29 20:57 | 38.19748 | 92.39599 | 37039 ft | 542 kts | 114° |
| 2026-04-29 20:58 | 38.17095 | 92.48552 | 37038 ft | 542 kts | 114° |
| 2026-04-29 20:58 | 38.14223 | 92.57368 | 37033 ft | 539 kts | 119° |
| 2026-04-29 20:59 | 38.10913 | 92.65907 | 37030 ft | 538 kts | 120° |
| 2026-04-29 20:59 | 38.07590 | 92.74473 | 37027 ft | 538 kts | 120° |
| 2026-04-29 21:00 | 38.04376 | 92.82974 | 37018 ft | 538 kts | 119° |
| 2026-04-29 21:00 | 38.01167 | 92.91544 | 37012 ft | 538 kts | 119° |
| 2026-04-29 21:01 | 37.97953 | 93.00110 | 37004 ft | 537 kts | 119° |
| 2026-04-29 21:01 | 37.94739 | 93.08646 | 36999 ft | 537 kts | 119° |
| 2026-04-29 21:02 | 37.91515 | 93.17175 | 36991 ft | 537 kts | 119° |
| 2026-04-29 21:02 | 37.88283 | 93.25701 | 36984 ft | 537 kts | 119° |
| 2026-04-29 21:03 | 37.85049 | 93.34208 | 36977 ft | 537 kts | 119° |
| 2026-04-29 21:03 | 37.81806 | 93.42719 | 36968 ft | 536 kts | 119° |
| 2026-04-29 21:04 | 37.78563 | 93.51203 | 36965 ft | 537 kts | 119° |
| 2026-04-29 21:04 | 37.75307 | 93.59698 | 36960 ft | 537 kts | 119° |
| 2026-04-29 21:05 | 37.72051 | 93.68169 | 36953 ft | 537 kts | 119° |
| 2026-04-29 21:05 | 37.68768 | 93.76688 | 36947 ft | 538 kts | 119° |
| 2026-04-29 21:06 | 37.65491 | 93.85167 | 36942 ft | 538 kts | 120° |
| 2026-04-29 21:06 | 37.62200 | 93.93662 | 36928 ft | 538 kts | 120° |
| 2026-04-29 21:07 | 37.58908 | 94.02133 | 36926 ft | 538 kts | 120° |
| 2026-04-29 21:07 | 37.56167 | 94.09172 | 36917 ft | 538 kts | 120° |
| 2026-04-29 21:08 | 37.52298 | 94.19076 | 36910 ft | 538 kts | 120° |
| 2026-04-29 21:08 | 37.48988 | 94.27525 | 36904 ft | 538 kts | 120° |
| 2026-04-29 21:09 | 37.45673 | 94.35962 | 36895 ft | 538 kts | 120° |
| 2026-04-29 21:09 | 37.42370 | 94.44348 | 36893 ft | 539 kts | 120° |
| 2026-04-29 21:10 | 37.39036 | 94.52791 | 36886 ft | 539 kts | 120° |
| 2026-04-29 21:10 | 37.35674 | 94.61281 | 36876 ft | 539 kts | 121° |
| 2026-04-29 21:11 | 37.32343 | 94.69670 | 36871 ft | 539 kts | 121° |
| 2026-04-29 21:11 | 37.28995 | 94.78081 | 36865 ft | 540 kts | 121° |
| 2026-04-29 21:12 | 37.25630 | 94.86509 | 36858 ft | 540 kts | 121° |
| 2026-04-29 21:12 | 37.22256 | 94.94941 | 36857 ft | 540 kts | 121° |
| 2026-04-29 21:13 | 37.18876 | 95.03364 | 36860 ft | 541 kts | 121° |
| 2026-04-29 21:13 | 37.15491 | 95.11776 | 36862 ft | 541 kts | 121° |
| 2026-04-29 21:14 | 37.12091 | 95.20201 | 36864 ft | 541 kts | 121° |
| 2026-04-29 21:14 | 37.08685 | 95.28621 | 36869 ft | 542 kts | 121° |
| 2026-04-29 21:15 | 37.05847 | 95.35620 | 36873 ft | 542 kts | 121° |
| 2026-04-29 21:15 | 37.01879 | 95.45381 | 36875 ft | 542 kts | 121° |
| 2026-04-29 21:16 | 36.98462 | 95.53792 | 36875 ft | 543 kts | 121° |
| 2026-04-29 21:16 | 36.95659 | 95.60914 | 36878 ft | 544 kts | 120° |
| 2026-04-29 21:17 | 36.91806 | 95.70775 | 36874 ft | 544 kts | 120° |
| 2026-04-29 21:17 | 36.89029 | 95.77829 | 36875 ft | 544 kts | 120° |
| 2026-04-29 21:18 | 36.85671 | 95.86309 | 36875 ft | 545 kts | 120° |
| 2026-04-29 21:18 | 36.82308 | 95.94769 | 36873 ft | 545 kts | 120° |
| 2026-04-29 21:19 | 36.78935 | 96.03232 | 36876 ft | 545 kts | 120° |
| 2026-04-29 21:19 | 36.75571 | 96.11693 | 36876 ft | 545 kts | 120° |
| 2026-04-29 21:20 | 36.72223 | 96.20157 | 36873 ft | 545 kts | 120° |
| 2026-04-29 21:20 | 36.68863 | 96.28629 | 36869 ft | 545 kts | 120° |
| 2026-04-29 21:21 | 36.65494 | 96.37094 | 36866 ft | 544 kts | 120° |
| 2026-04-29 21:21 | 36.62128 | 96.45523 | 36869 ft | 544 kts | 121° |
| 2026-04-29 21:22 | 36.58748 | 96.53967 | 36868 ft | 545 kts | 120° |
| 2026-04-29 21:22 | 36.55364 | 96.62421 | 36862 ft | 546 kts | 120° |
| 2026-04-29 21:23 | 36.52024 | 96.70921 | 36864 ft | 547 kts | 120° |
| 2026-04-29 21:23 | 36.48693 | 96.79418 | 36856 ft | 548 kts | 120° |
| 2026-04-29 21:24 | 36.45343 | 96.87917 | 36856 ft | 548 kts | 120° |
| 2026-04-29 21:24 | 36.41978 | 96.96417 | 36849 ft | 548 kts | 120° |
| 2026-04-29 21:25 | 36.38601 | 97.04921 | 36842 ft | 549 kts | 120° |
| 2026-04-29 21:25 | 36.35221 | 97.13410 | 36836 ft | 549 kts | 120° |
| 2026-04-29 21:26 | 36.31835 | 97.21891 | 36831 ft | 549 kts | 120° |
| 2026-04-29 21:26 | 36.28465 | 97.30309 | 36829 ft | 550 kts | 120° |
| 2026-04-29 21:27 | 36.25057 | 97.38803 | 36822 ft | 550 kts | 120° |
| 2026-04-29 21:27 | 36.21646 | 97.47280 | 36816 ft | 550 kts | 120° |
| 2026-04-29 21:28 | 36.18228 | 97.55755 | 36822 ft | 550 kts | 120° |
| 2026-04-29 21:28 | 36.14802 | 97.64228 | 36835 ft | 550 kts | 120° |
| 2026-04-29 21:29 | 36.11469 | 97.72750 | 36845 ft | 551 kts | 118° |
| 2026-04-29 21:29 | 36.08192 | 97.81321 | 36856 ft | 551 kts | 118° |
| 2026-04-29 21:30 | 36.04897 | 97.89877 | 36876 ft | 551 kts | 118° |
| 2026-04-29 21:30 | 36.01578 | 97.98424 | 36894 ft | 551 kts | 119° |
| 2026-04-29 21:31 | 35.98251 | 98.06953 | 36908 ft | 552 kts | 119° |
| 2026-04-29 21:31 | 35.94919 | 98.15474 | 36928 ft | 552 kts | 118° |
| 2026-04-29 21:32 | 35.91580 | 98.24000 | 36945 ft | 552 kts | 119° |
| 2026-04-29 21:32 | 35.88232 | 98.32518 | 36965 ft | 551 kts | 119° |
| 2026-04-29 21:33 | 35.84874 | 98.41035 | 36986 ft | 553 kts | 118° |
| 2026-04-29 21:33 | 35.81501 | 98.49565 | 37009 ft | 554 kts | 118° |
| 2026-04-29 21:34 | 35.78122 | 98.58098 | 37003 ft | 553 kts | 118° |
| 2026-04-29 21:34 | 35.74743 | 98.66615 | 37009 ft | 553 kts | 118° |
| 2026-04-29 21:35 | 35.71385 | 98.75048 | 37035 ft | 554 kts | 118° |
| 2026-04-29 21:35 | 35.67983 | 98.83569 | 37043 ft | 554 kts | 118° |
| 2026-04-29 21:36 | 35.64576 | 98.92080 | 37045 ft | 554 kts | 118° |
| 2026-04-29 21:36 | 35.61166 | 99.00577 | 37054 ft | 555 kts | 118° |
| 2026-04-29 21:37 | 35.57748 | 99.09073 | 37047 ft | 555 kts | 118° |
| 2026-04-29 21:37 | 35.54324 | 99.17559 | 37045 ft | 555 kts | 118° |
| 2026-04-29 21:38 | 35.50886 | 99.26060 | 37036 ft | 555 kts | 118° |
| 2026-04-29 21:38 | 35.47448 | 99.34543 | 37025 ft | 556 kts | 118° |
| 2026-04-29 21:39 | 35.44000 | 99.43022 | 37023 ft | 555 kts | 118° |
| 2026-04-29 21:39 | 35.40542 | 99.51500 | 37018 ft | 556 kts | 118° |
| 2026-04-29 21:40 | 35.37078 | 99.59976 | 37016 ft | 557 kts | 118° |
| 2026-04-29 21:40 | 35.33598 | 99.68473 | 37014 ft | 557 kts | 118° |
| 2026-04-29 21:41 | 35.30125 | 99.76932 | 37008 ft | 558 kts | 118° |
| 2026-04-29 21:41 | 35.26655 | 99.85360 | 37013 ft | 558 kts | 118° |
| 2026-04-29 21:42 | 35.23159 | 99.93829 | 37010 ft | 557 kts | 118° |
| 2026-04-29 21:42 | 35.19658 | 100.02288 | 37007 ft | 558 kts | 118° |
| 2026-04-29 21:43 | 35.16138 | 100.10763 | 37007 ft | 558 kts | 118° |
| 2026-04-29 21:43 | 35.12626 | 100.19207 | 37007 ft | 559 kts | 118° |
| 2026-04-29 21:44 | 35.09092 | 100.27682 | 37001 ft | 560 kts | 118° |
| 2026-04-29 21:44 | 35.05547 | 100.36159 | 37007 ft | 560 kts | 118° |
| 2026-04-29 21:45 | 35.02011 | 100.44594 | 37005 ft | 560 kts | 118° |
| 2026-04-29 21:45 | 34.98449 | 100.53073 | 37010 ft | 560 kts | 118° |
| 2026-04-29 21:46 | 34.94899 | 100.61500 | 37015 ft | 560 kts | 118° |
| 2026-04-29 21:46 | 34.91336 | 100.69936 | 37006 ft | 560 kts | 118° |
| 2026-04-29 21:47 | 34.87761 | 100.78371 | 37022 ft | 561 kts | 118° |
| 2026-04-29 21:47 | 34.84175 | 100.86820 | 37036 ft | 561 kts | 118° |
| 2026-04-29 21:48 | 34.80616 | 100.95188 | 37042 ft | 560 kts | 118° |
| 2026-04-29 21:48 | 34.77004 | 101.03659 | 37053 ft | 560 kts | 118° |
| 2026-04-29 21:49 | 34.73409 | 101.12065 | 37055 ft | 560 kts | 118° |
| 2026-04-29 21:49 | 34.69808 | 101.20469 | 37060 ft | 558 kts | 118° |
| 2026-04-29 21:49 | 34.68064 | 101.24542 | 37064 ft | 546 kts | 118° |
| 2026-04-29 21:50 | 34.66303 | 101.28642 | 37071 ft | 536 kts | 118° |
| 2026-04-29 21:50 | 34.62881 | 101.36575 | 37075 ft | 534 kts | 118° |
| 2026-04-29 21:51 | 34.59424 | 101.44574 | 37070 ft | 536 kts | 118° |
| 2026-04-29 21:51 | 34.54219 | 101.56593 | 37078 ft | 536 kts | 118° |
| 2026-04-29 21:52 | 34.50744 | 101.64593 | 37079 ft | 536 kts | 118° |
| 2026-04-29 21:52 | 34.47259 | 101.72598 | 37087 ft | 537 kts | 118° |
| 2026-04-29 21:53 | 34.43766 | 101.80602 | 37094 ft | 537 kts | 118° |
| 2026-04-29 21:53 | 34.40269 | 101.88598 | 37102 ft | 537 kts | 118° |
| 2026-04-29 21:54 | 34.36765 | 101.96591 | 37112 ft | 537 kts | 118° |
| 2026-04-29 21:54 | 34.33261 | 102.04566 | 37120 ft | 539 kts | 118° |
| 2026-04-29 21:55 | 34.29733 | 102.12580 | 37126 ft | 539 kts | 118° |
| 2026-04-29 21:55 | 34.26203 | 102.20575 | 37132 ft | 539 kts | 118° |
| 2026-04-29 21:56 | 34.22667 | 102.28568 | 37135 ft | 539 kts | 118° |
| 2026-04-29 21:56 | 34.19127 | 102.36548 | 37135 ft | 539 kts | 118° |
| 2026-04-29 21:57 | 34.15666 | 102.44511 | 37136 ft | 539 kts | 117° |
| 2026-04-29 21:57 | 34.12261 | 102.52556 | 37137 ft | 539 kts | 117° |
| 2026-04-29 21:58 | 34.08838 | 102.60613 | 37133 ft | 538 kts | 117° |
| 2026-04-29 21:58 | 34.05402 | 102.68629 | 37132 ft | 539 kts | 117° |
| 2026-04-29 21:59 | 34.01942 | 102.76665 | 37127 ft | 540 kts | 117° |
| 2026-04-29 21:59 | 33.98479 | 102.84690 | 37128 ft | 540 kts | 117° |
| 2026-04-29 22:00 | 33.95012 | 102.92708 | 37128 ft | 539 kts | 117° |
| 2026-04-29 22:00 | 33.91542 | 103.00713 | 37129 ft | 540 kts | 117° |
| 2026-04-29 22:01 | 33.88060 | 103.08729 | 37125 ft | 540 kts | 117° |
| 2026-04-29 22:01 | 33.84577 | 103.16734 | 37115 ft | 540 kts | 117° |
| 2026-04-29 22:02 | 33.81087 | 103.24727 | 37118 ft | 541 kts | 117° |
| 2026-04-29 22:02 | 33.77607 | 103.32685 | 37118 ft | 541 kts | 117° |
| 2026-04-29 22:03 | 33.74101 | 103.40687 | 37126 ft | 541 kts | 117° |
| 2026-04-29 22:03 | 33.70596 | 103.48670 | 37129 ft | 540 kts | 117° |
| 2026-04-29 22:04 | 33.67087 | 103.56637 | 37116 ft | 540 kts | 117° |
| 2026-04-29 22:04 | 33.63575 | 103.64595 | 37109 ft | 540 kts | 118° |
| 2026-04-29 22:05 | 33.60048 | 103.72567 | 37101 ft | 541 kts | 118° |
| 2026-04-29 22:06 | 33.54743 | 103.84518 | 37115 ft | 541 kts | 118° |
| 2026-04-29 22:06 | 33.51803 | 103.91131 | 37143 ft | 541 kts | 118° |
| 2026-04-29 22:07 | 33.48261 | 103.99083 | 37133 ft | 541 kts | 118° |
| 2026-04-29 22:07 | 33.44720 | 104.07011 | 37163 ft | 540 kts | 118° |
| 2026-04-29 22:08 | 33.41167 | 104.14947 | 37152 ft | 540 kts | 118° |
| 2026-04-29 22:08 | 33.37466 | 104.22737 | 37160 ft | 540 kts | 127° |
| 2026-04-29 22:08 | 33.35020 | 104.26128 | 37157 ft | 535 kts | 140° |
| 2026-04-29 22:09 | 33.32115 | 104.28823 | 37173 ft | 526 kts | 154° |
| 2026-04-29 22:09 | 33.25623 | 104.32676 | 37181 ft | 519 kts | 162° |
| 2026-04-29 22:10 | 33.19010 | 104.36136 | 37180 ft | 518 kts | 163° |
| 2026-04-29 22:10 | 33.12402 | 104.39586 | 37180 ft | 520 kts | 162° |
| 2026-04-29 22:11 | 33.05797 | 104.43087 | 37190 ft | 519 kts | 162° |
| 2026-04-29 22:11 | 32.99265 | 104.46572 | 37205 ft | 518 kts | 162° |
| 2026-04-29 22:12 | 32.92695 | 104.50074 | 37199 ft | 516 kts | 162° |
| 2026-04-29 22:12 | 32.86123 | 104.53567 | 37208 ft | 516 kts | 162° |
| 2026-04-29 22:13 | 32.79565 | 104.57031 | 37205 ft | 515 kts | 163° |
| 2026-04-29 22:13 | 32.76190 | 104.58352 | 37210 ft | 504 kts | 175° |
| 2026-04-29 22:13 | 32.72788 | 104.58941 | 37219 ft | 493 kts | 184° |
| 2026-04-29 22:14 | 32.65957 | 104.59369 | 37211 ft | 490 kts | 186° |
| 2026-04-29 22:14 | 32.59153 | 104.59619 | 37202 ft | 489 kts | 187° |
| 2026-04-29 22:15 | 32.52352 | 104.59889 | 37226 ft | 488 kts | 186° |
| 2026-04-29 22:15 | 32.45568 | 104.60190 | 37215 ft | 488 kts | 186° |
| 2026-04-29 22:16 | 32.38778 | 104.60504 | 37219 ft | 488 kts | 186° |
| 2026-04-29 22:16 | 32.32009 | 104.60869 | 37215 ft | 488 kts | 186° |
| 2026-04-29 22:17 | 32.25225 | 104.61254 | 37221 ft | 487 kts | 185° |
| 2026-04-29 22:17 | 32.18463 | 104.61632 | 37214 ft | 487 kts | 186° |
| 2026-04-29 22:18 | 32.11682 | 104.62004 | 37211 ft | 486 kts | 186° |
| 2026-04-29 22:18 | 32.04934 | 104.62371 | 37210 ft | 486 kts | 186° |
| 2026-04-29 22:19 | 31.98184 | 104.62737 | 37211 ft | 485 kts | 186° |
| 2026-04-29 22:19 | 31.91489 | 104.63102 | 37209 ft | 485 kts | 186° |
| 2026-04-29 22:20 | 31.84752 | 104.63469 | 37214 ft | 484 kts | 186° |
| 2026-04-29 22:20 | 31.78029 | 104.63836 | 37204 ft | 484 kts | 186° |
| 2026-04-29 22:21 | 31.71315 | 104.64155 | 37202 ft | 481 kts | 187° |
| 2026-04-29 22:21 | 31.64632 | 104.64391 | 37207 ft | 480 kts | 187° |
| 2026-04-29 22:22 | 31.57952 | 104.64633 | 37204 ft | 480 kts | 187° |
| 2026-04-29 22:22 | 31.51278 | 104.64891 | 37202 ft | 480 kts | 187° |
| 2026-04-29 22:23 | 31.44628 | 104.65154 | 37200 ft | 479 kts | 187° |
| 2026-04-29 22:23 | 31.37956 | 104.65418 | 37202 ft | 479 kts | 187° |
| 2026-04-29 22:24 | 31.31312 | 104.65679 | 37203 ft | 478 kts | 187° |
| 2026-04-29 22:24 | 31.24666 | 104.65939 | 37199 ft | 477 kts | 187° |
| 2026-04-29 22:25 | 31.18037 | 104.66202 | 37200 ft | 477 kts | 186° |
| 2026-04-29 22:25 | 31.11412 | 104.66463 | 37201 ft | 476 kts | 186° |
| 2026-04-29 22:26 | 31.04786 | 104.66723 | 37202 ft | 476 kts | 186° |
| 2026-04-29 22:26 | 30.98146 | 104.67263 | 37198 ft | 481 kts | 182° |
| 2026-04-29 22:26 | 30.94843 | 104.68017 | 37204 ft | 491 kts | 171° |
| 2026-04-29 22:27 | 30.91664 | 104.69447 | 37203 ft | 501 kts | 159° |
| 2026-04-29 22:27 | 30.88650 | 104.71657 | 37204 ft | 511 kts | 146° |
| 2026-04-29 22:27 | 30.86077 | 104.74544 | 37206 ft | 518 kts | 133° |
| 2026-04-29 22:27 | 30.84080 | 104.77978 | 37209 ft | 523 kts | 119° |
| 2026-04-29 22:28 | 30.82704 | 104.81957 | 37206 ft | 524 kts | 105° |
| 2026-04-29 22:28 | 30.82096 | 104.86113 | 37210 ft | 522 kts | 91° |
| 2026-04-29 22:28 | 30.82240 | 104.90249 | 37211 ft | 516 kts | 77° |
| 2026-04-29 22:28 | 30.83122 | 104.94300 | 37208 ft | 508 kts | 64° |
| 2026-04-29 22:29 | 30.84417 | 104.98060 | 37197 ft | 509 kts | 65° |
| 2026-04-29 22:29 | 30.85229 | 105.02106 | 37207 ft | 518 kts | 79° |
| 2026-04-29 22:29 | 30.85421 | 105.06300 | 37205 ft | 522 kts | 87° |
| 2026-04-29 22:30 | 30.85265 | 105.14777 | 37209 ft | 524 kts | 90° |
| 2026-04-29 22:30 | 30.84950 | 105.23249 | 37210 ft | 524 kts | 90° |
| 2026-04-29 22:31 | 30.84644 | 105.31733 | 37208 ft | 524 kts | 90° |
| 2026-04-29 22:31 | 30.84434 | 105.40200 | 37200 ft | 523 kts | 84° |
| 2026-04-29 22:31 | 30.84882 | 105.44373 | 37219 ft | 517 kts | 73° |
| 2026-04-29 22:32 | 30.85648 | 105.48448 | 37210 ft | 516 kts | 72° |
| 2026-04-29 22:32 | 30.87367 | 105.56564 | 37210 ft | 516 kts | 71° |
| 2026-04-29 22:33 | 30.89133 | 105.64663 | 37213 ft | 516 kts | 71° |
| 2026-04-29 22:33 | 30.90873 | 105.72783 | 37208 ft | 517 kts | 72° |
| 2026-04-29 22:34 | 30.92590 | 105.80901 | 37211 ft | 517 kts | 72° |
| 2026-04-29 22:34 | 30.94300 | 105.89034 | 37207 ft | 517 kts | 72° |
| 2026-04-29 22:35 | 30.95913 | 105.97196 | 37212 ft | 520 kts | 78° |
| 2026-04-29 22:35 | 30.96135 | 106.01417 | 37211 ft | 523 kts | 91° |
| 2026-04-29 22:35 | 30.95654 | 106.05607 | 37217 ft | 524 kts | 103° |
| 2026-04-29 22:36 | 30.93854 | 106.13792 | 37197 ft | 525 kts | 106° |
| 2026-04-29 22:36 | 30.91831 | 106.22010 | 37201 ft | 525 kts | 107° |
| 2026-04-29 22:37 | 30.89850 | 106.30127 | 37218 ft | 525 kts | 106° |
| 2026-04-29 22:37 | 30.87638 | 106.38230 | 37200 ft | 523 kts | 117° |
| 2026-04-29 22:37 | 30.85837 | 106.41881 | 37206 ft | 517 kts | 130° |
| 2026-04-29 22:38 | 30.83506 | 106.45019 | 37208 ft | 510 kts | 140° |
| 2026-04-29 22:38 | 30.78394 | 106.50725 | 37211 ft | 509 kts | 142° |
| 2026-04-29 22:39 | 30.73182 | 106.56290 | 37209 ft | 509 kts | 143° |
| 2026-04-29 22:39 | 30.67993 | 106.61867 | 37205 ft | 508 kts | 142° |
| 2026-04-29 22:40 | 30.63105 | 106.67825 | 37210 ft | 515 kts | 129° |
| 2026-04-29 22:40 | 30.61331 | 106.71433 | 37208 ft | 520 kts | 115° |
| 2026-04-29 22:40 | 30.60225 | 106.75435 | 37209 ft | 522 kts | 101° |
| 2026-04-29 22:41 | 30.59228 | 106.83797 | 37210 ft | 524 kts | 96° |
| 2026-04-29 22:41 | 30.58480 | 106.92211 | 37213 ft | 524 kts | 96° |
| 2026-04-29 22:42 | 30.57704 | 107.00630 | 37216 ft | 524 kts | 97° |
| 2026-04-29 22:42 | 30.56882 | 107.09018 | 37226 ft | 524 kts | 97° |
| 2026-04-29 22:43 | 30.56035 | 107.17429 | 37218 ft | 524 kts | 97° |
| 2026-04-29 22:43 | 30.55185 | 107.25807 | 37220 ft | 523 kts | 97° |
| 2026-04-29 22:44 | 30.54330 | 107.34200 | 37241 ft | 524 kts | 97° |
| 2026-04-29 22:44 | 30.53471 | 107.42593 | 37224 ft | 523 kts | 97° |
| 2026-04-29 22:45 | 30.52610 | 107.50960 | 37240 ft | 523 kts | 98° |
| 2026-04-29 22:45 | 30.51742 | 107.59319 | 37232 ft | 522 kts | 98° |
| 2026-04-29 22:46 | 30.50875 | 107.67638 | 37250 ft | 522 kts | 98° |
| 2026-04-29 22:46 | 30.49996 | 107.75996 | 37248 ft | 522 kts | 98° |
| 2026-04-29 22:47 | 30.49114 | 107.84348 | 37242 ft | 522 kts | 98° |
| 2026-04-29 22:47 | 30.48226 | 107.92698 | 37235 ft | 522 kts | 98° |
| 2026-04-29 22:48 | 30.47334 | 108.01047 | 37230 ft | 522 kts | 99° |
| 2026-04-29 22:48 | 30.46436 | 108.09385 | 37238 ft | 522 kts | 99° |
| 2026-04-29 22:49 | 30.45533 | 108.17722 | 37243 ft | 521 kts | 99° |
| 2026-04-29 22:49 | 30.44625 | 108.26064 | 37247 ft | 522 kts | 99° |
| 2026-04-29 22:50 | 30.43713 | 108.34394 | 37248 ft | 521 kts | 99° |
| 2026-04-29 22:50 | 30.42793 | 108.42734 | 37252 ft | 521 kts | 99° |
| 2026-04-29 22:51 | 30.41842 | 108.51119 | 37269 ft | 531 kts | 93° |
| 2026-04-29 22:51 | 30.40420 | 108.64115 | 37264 ft | 548 kts | 93° |
| 2026-04-29 22:52 | 30.39440 | 108.72830 | 37273 ft | 545 kts | 94° |
| 2026-04-29 22:52 | 30.38452 | 108.81540 | 37281 ft | 546 kts | 94° |
| 2026-04-29 22:53 | 30.37454 | 108.90248 | 37288 ft | 545 kts | 94° |
| 2026-04-29 22:53 | 30.36450 | 108.98956 | 37288 ft | 546 kts | 94° |
| 2026-04-29 22:54 | 30.35452 | 109.07610 | 37291 ft | 546 kts | 94° |
| 2026-04-29 22:54 | 30.34606 | 109.14905 | 37294 ft | 547 kts | 94° |
| 2026-04-29 22:55 | 30.33424 | 109.25049 | 37296 ft | 547 kts | 94° |
| 2026-04-29 22:55 | 30.32401 | 109.33773 | 37293 ft | 547 kts | 94° |
| 2026-04-29 22:56 | 30.31529 | 109.41081 | 37292 ft | 548 kts | 94° |
| 2026-04-29 22:56 | 30.30450 | 109.49817 | 37294 ft | 549 kts | 94° |
| 2026-04-29 22:57 | 30.29567 | 109.54127 | 37306 ft | 553 kts | 108° |
| 2026-04-29 22:57 | 30.27301 | 109.59388 | 37293 ft | 551 kts | 128° |
| 2026-04-29 22:57 | 30.22858 | 109.64464 | 37304 ft | 534 kts | 154° |
| 2026-04-29 22:58 | 30.16549 | 109.68919 | 37293 ft | 530 kts | 158° |
| 2026-04-29 22:58 | 30.10109 | 109.73163 | 37296 ft | 529 kts | 158° |
| 2026-04-29 22:59 | 30.03774 | 109.77367 | 37301 ft | 529 kts | 158° |
| 2026-04-29 22:59 | 29.97411 | 109.81643 | 37301 ft | 530 kts | 157° |
| 2026-04-29 23:00 | 29.91038 | 109.85940 | 37302 ft | 530 kts | 158° |
| 2026-04-29 23:00 | 29.84675 | 109.90224 | 37305 ft | 530 kts | 158° |
| 2026-04-29 23:01 | 29.78318 | 109.94494 | 37313 ft | 530 kts | 158° |
| 2026-04-29 23:01 | 29.71951 | 109.98765 | 37305 ft | 529 kts | 158° |
| 2026-04-29 23:02 | 29.65591 | 110.03025 | 37309 ft | 529 kts | 158° |
| 2026-04-29 23:02 | 29.59223 | 110.07283 | 37309 ft | 529 kts | 157° |
| 2026-04-29 23:03 | 29.52868 | 110.11527 | 37307 ft | 529 kts | 158° |
| 2026-04-29 23:03 | 29.46508 | 110.15773 | 37309 ft | 529 kts | 157° |
| 2026-04-29 23:04 | 29.40158 | 110.20013 | 37313 ft | 528 kts | 157° |
| 2026-04-29 23:04 | 29.33805 | 110.24243 | 37311 ft | 528 kts | 157° |
| 2026-04-29 23:05 | 29.27459 | 110.28465 | 37309 ft | 527 kts | 157° |
| 2026-04-29 23:05 | 29.21124 | 110.32675 | 37303 ft | 527 kts | 158° |
| 2026-04-29 23:06 | 29.14782 | 110.36884 | 37308 ft | 526 kts | 158° |
| 2026-04-29 23:06 | 29.08868 | 110.41935 | 37305 ft | 542 kts | 136° |
| 2026-04-29 23:07 | 29.04452 | 110.48887 | 37296 ft | 546 kts | 125° |
| 2026-04-29 23:07 | 29.00374 | 110.56236 | 37302 ft | 547 kts | 124° |
| 2026-04-29 23:08 | 28.96323 | 110.63582 | 37303 ft | 547 kts | 124° |
| 2026-04-29 23:08 | 28.92218 | 110.70907 | 37300 ft | 546 kts | 125° |
| 2026-04-29 23:09 | 28.88109 | 110.78172 | 37302 ft | 545 kts | 125° |
| 2026-04-29 23:09 | 28.83985 | 110.85446 | 37297 ft | 545 kts | 126° |
| 2026-04-29 23:10 | 28.79867 | 110.92699 | 37299 ft | 545 kts | 126° |
| 2026-04-29 23:10 | 28.75775 | 110.99897 | 37300 ft | 544 kts | 126° |
| 2026-04-29 23:11 | 28.71634 | 111.07167 | 37297 ft | 543 kts | 126° |
| 2026-04-29 23:11 | 28.67553 | 111.14322 | 37291 ft | 542 kts | 126° |
| 2026-04-29 23:12 | 28.63426 | 111.21577 | 37285 ft | 542 kts | 126° |
| 2026-04-29 23:12 | 28.59383 | 111.28740 | 37299 ft | 542 kts | 126° |
| 2026-04-29 23:13 | 28.55311 | 111.35948 | 37294 ft | 541 kts | 126° |
| 2026-04-29 23:13 | 28.51238 | 111.43137 | 37295 ft | 540 kts | 126° |
| 2026-04-29 23:14 | 28.47170 | 111.50303 | 37294 ft | 539 kts | 126° |
| 2026-04-29 23:14 | 28.43111 | 111.57442 | 37038 ft | 534 kts | 126° |
| 2026-04-29 23:15 | 28.41084 | 111.61003 | 36227 ft | 540 kts | 126° |
| 2026-04-29 23:15 | 28.39033 | 111.64595 | 35394 ft | 546 kts | 126° |
| 2026-04-29 23:15 | 28.36958 | 111.68227 | 34596 ft | 552 kts | 126° |
| 2026-04-29 23:15 | 28.34851 | 111.71913 | 33769 ft | 557 kts | 126° |
| 2026-04-29 23:16 | 28.32741 | 111.75607 | 33071 ft | 557 kts | 126° |
| 2026-04-29 23:16 | 28.30641 | 111.79285 | 32474 ft | 555 kts | 126° |
| 2026-04-29 23:16 | 28.28538 | 111.82963 | 31885 ft | 553 kts | 126° |
| 2026-04-29 23:16 | 28.26453 | 111.86608 | 31369 ft | 550 kts | 127° |
| 2026-04-29 23:17 | 28.24383 | 111.90225 | 30853 ft | 546 kts | 127° |
| 2026-04-29 23:17 | 28.22319 | 111.93824 | 30347 ft | 543 kts | 127° |
| 2026-04-29 23:17 | 28.20260 | 111.97410 | 29782 ft | 539 kts | 127° |
| 2026-04-29 23:17 | 28.18227 | 112.00954 | 29212 ft | 536 kts | 127° |
| 2026-04-29 23:18 | 28.16196 | 112.04475 | 28660 ft | 531 kts | 127° |
| 2026-04-29 23:18 | 28.14182 | 112.07956 | 28291 ft | 524 kts | 127° |
| 2026-04-29 23:18 | 28.12213 | 112.11377 | 28044 ft | 514 kts | 127° |
| 2026-04-29 23:18 | 28.10295 | 112.14742 | 27800 ft | 504 kts | 127° |
| 2026-04-29 23:19 | 28.08845 | 112.17293 | 27603 ft | 497 kts | 127° |
| 2026-04-29 23:19 | 28.07446 | 112.19757 | 27426 ft | 489 kts | 127° |
| 2026-04-29 23:19 | 28.05653 | 112.22921 | 27064 ft | 467 kts | 127° |
| 2026-04-29 23:19 | 28.03906 | 112.25925 | 26665 ft | 448 kts | 128° |
| 2026-04-29 23:20 | 28.02209 | 112.28809 | 26295 ft | 430 kts | 129° |
| 2026-04-29 23:20 | 28.00587 | 112.31569 | 25939 ft | 414 kts | 129° |
| 2026-04-29 23:20 | 27.99125 | 112.34332 | 25459 ft | 408 kts | 117° |
| 2026-04-29 23:20 | 27.98413 | 112.37407 | 24905 ft | 404 kts | 95° |
| 2026-04-29 23:21 | 27.98220 | 112.40512 | 24370 ft | 398 kts | 91° |
| 2026-04-29 23:21 | 27.98069 | 112.43658 | 23812 ft | 393 kts | 92° |
| 2026-04-29 23:21 | 27.97908 | 112.46681 | 23207 ft | 387 kts | 92° |
| 2026-04-29 23:21 | 27.97733 | 112.49729 | 22658 ft | 379 kts | 93° |
| 2026-04-29 23:22 | 27.97560 | 112.52620 | 22233 ft | 367 kts | 92° |
| 2026-04-29 23:22 | 27.97388 | 112.55442 | 21884 ft | 353 kts | 93° |
| 2026-04-29 23:22 | 27.97220 | 112.58182 | 21405 ft | 346 kts | 93° |
| 2026-04-29 23:22 | 27.97053 | 112.60880 | 20939 ft | 339 kts | 93° |
| 2026-04-29 23:23 | 27.96893 | 112.63507 | 20528 ft | 333 kts | 93° |
| 2026-04-29 23:23 | 27.96729 | 112.66093 | 20216 ft | 328 kts | 93° |
| 2026-04-29 23:23 | 27.96567 | 112.68635 | 20086 ft | 319 kts | 93° |
| 2026-04-29 23:23 | 27.96409 | 112.71109 | 19933 ft | 312 kts | 93° |
| 2026-04-29 23:24 | 27.96254 | 112.73544 | 19726 ft | 309 kts | 93° |
| 2026-04-29 23:24 | 27.96101 | 112.75953 | 19534 ft | 306 kts | 93° |
| 2026-04-29 23:24 | 27.95949 | 112.78330 | 19398 ft | 304 kts | 93° |
| 2026-04-29 23:24 | 27.95796 | 112.80712 | 19292 ft | 302 kts | 93° |
| 2026-04-29 23:25 | 27.95648 | 112.83080 | 19205 ft | 301 kts | 93° |
| 2026-04-29 23:25 | 27.95607 | 112.85443 | 19150 ft | 299 kts | 90° |
| 2026-04-29 23:25 | 27.95567 | 112.87785 | 19120 ft | 299 kts | 90° |
| 2026-04-29 23:25 | 27.95529 | 112.90133 | 19078 ft | 298 kts | 90° |
| 2026-04-29 23:26 | 27.95498 | 112.92475 | 18940 ft | 296 kts | 90° |
| 2026-04-29 23:26 | 27.95472 | 112.94794 | 18706 ft | 293 kts | 89° |
| 2026-04-29 23:26 | 27.95506 | 112.97082 | 18449 ft | 290 kts | 82° |
| 2026-04-29 23:26 | 27.96090 | 112.99244 | 17886 ft | 290 kts | 55° |
| 2026-04-29 23:27 | 27.97433 | 113.00881 | 17151 ft | 293 kts | 28° |
| 2026-04-29 23:27 | 27.99322 | 113.01718 | 16404 ft | 295 kts | 2° |
| 2026-04-29 23:27 | 28.01345 | 113.01613 | 15911 ft | 291 kts | 346° |
| 2026-04-29 23:27 | 28.03368 | 113.01452 | 15539 ft | 294 kts | 356° |
| 2026-04-29 23:28 | 28.05351 | 113.01852 | 15196 ft | 289 kts | 19° |
| 2026-04-29 23:28 | 28.06934 | 113.03183 | 14919 ft | 281 kts | 47° |
| 2026-04-29 23:28 | 28.07793 | 113.05106 | 14655 ft | 273 kts | 74° |
| 2026-04-29 23:28 | 28.07993 | 113.07189 | 14476 ft | 258 kts | 86° |
| 2026-04-29 23:29 | 28.07786 | 113.09167 | 14099 ft | 250 kts | 105° |
| 2026-04-29 23:29 | 28.06946 | 113.10840 | 13575 ft | 248 kts | 133° |
| 2026-04-29 23:29 | 28.05554 | 113.11954 | 13088 ft | 240 kts | 159° |
| 2026-04-29 23:29 | 28.03982 | 113.12352 | 12643 ft | 231 kts | 179° |
| 2026-04-29 23:30 | 28.02390 | 113.12445 | 12179 ft | 228 kts | 181° |
| 2026-04-29 23:30 | 28.00805 | 113.12511 | 11691 ft | 226 kts | 180° |
| 2026-04-29 23:30 | 27.99241 | 113.12567 | 11248 ft | 224 kts | 180° |
| 2026-04-29 23:30 | 27.97690 | 113.12610 | 10793 ft | 222 kts | 180° |
| 2026-04-29 23:31 | 27.96148 | 113.12640 | 10346 ft | 220 kts | 180° |
| 2026-04-29 23:31 | 27.94626 | 113.12654 | 9910 ft | 218 kts | 180° |
| 2026-04-29 23:31 | 27.93121 | 113.12657 | 9405 ft | 217 kts | 180° |
| 2026-04-29 23:31 | 27.91606 | 113.12650 | 8883 ft | 217 kts | 180° |
| 2026-04-29 23:32 | 27.90092 | 113.12635 | 8403 ft | 217 kts | 180° |
| 2026-04-29 23:32 | 27.88613 | 113.12930 | 7863 ft | 217 kts | 154° |
| 2026-04-29 23:32 | 27.87513 | 113.14015 | 7393 ft | 208 kts | 118° |
| 2026-04-29 23:32 | 27.87108 | 113.15526 | 6976 ft | 199 kts | 91° |
| 2026-04-29 23:33 | 27.87034 | 113.17069 | 6552 ft | 195 kts | 87° |
| 2026-04-29 23:33 | 27.87000 | 113.18596 | 6116 ft | 193 kts | 87° |
| 2026-04-29 23:33 | 27.86974 | 113.20117 | 5651 ft | 193 kts | 87° |
| 2026-04-29 23:33 | 27.87156 | 113.21596 | 5142 ft | 190 kts | 65° |
| 2026-04-29 23:34 | 27.87981 | 113.22715 | 4749 ft | 184 kts | 36° |
| 2026-04-29 23:34 | 27.89040 | 113.23508 | 4281 ft | 183 kts | 28° |
| 2026-04-29 23:34 | 27.90273 | 113.23868 | 3810 ft | 183 kts | 6° |
| 2026-04-29 23:34 | 27.91542 | 113.23950 | 3388 ft | 183 kts | 0° |
| 2026-04-29 23:35 | 27.92810 | 113.23929 | 2954 ft | 183 kts | 358° |
| 2026-04-29 23:35 | 27.94078 | 113.23875 | 2558 ft | 182 kts | 357° |
| 2026-04-29 23:35 | 27.95331 | 113.23800 | 2318 ft | 179 kts | 356° |
| 2026-04-29 23:35 | 27.96582 | 113.23722 | 2288 ft | 181 kts | 356° |
| 2026-04-29 23:36 | 27.97836 | 113.23646 | 2293 ft | 181 kts | 357° |
| 2026-04-29 23:36 | 27.99091 | 113.23575 | 2290 ft | 180 kts | 357° |
| 2026-04-29 23:36 | 28.00350 | 113.23502 | 2297 ft | 181 kts | 357° |
| 2026-04-29 23:36 | 28.01599 | 113.23427 | 2286 ft | 180 kts | 357° |
| 2026-04-29 23:37 | 28.02857 | 113.23349 | 2296 ft | 180 kts | 356° |
| 2026-04-29 23:37 | 28.04109 | 113.23272 | 2284 ft | 177 kts | 357° |
| 2026-04-29 23:37 | 28.05261 | 113.23202 | 2290 ft | 155 kts | 357° |
| 2026-04-29 23:37 | 28.06303 | 113.23138 | 2313 ft | 148 kts | 357° |
| 2026-04-29 23:38 | 28.07300 | 113.23078 | 2253 ft | 141 kts | 357° |
| 2026-04-29 23:38 | 28.08259 | 113.23018 | 2060 ft | 135 kts | 357° |
| 2026-04-29 23:38 | 28.09180 | 113.22960 | 1879 ft | 131 kts | 357° |
| 2026-04-29 23:38 | 28.10066 | 113.22906 | 1717 ft | 132 kts | 357° |
| 2026-04-29 23:39 | 28.10997 | 113.22850 | 1516 ft | 132 kts | 357° |
| 2026-04-29 23:39 | 28.11929 | 113.22793 | 1333 ft | 132 kts | 357° |
| 2026-04-29 23:39 | 28.12847 | 113.22741 | 1148 ft | 133 kts | 358° |
| 2026-04-29 23:39 | 28.13764 | 113.22703 | 983 ft | 133 kts | 358° |
| 2026-04-29 23:40 | 28.14680 | 113.22647 | 776 ft | 132 kts | 356° |
| 2026-04-29 23:40 | 28.15595 | 113.22577 | 636 ft | 132 kts | 357° |
| 2026-04-29 23:40 | 28.16513 | 113.22517 | 432 ft | 132 kts | 359° |
| 2026-04-29 23:40 | 28.17429 | 113.22457 | 298 ft | 132 kts | 358° |
| 2026-04-29 23:41 | 28.18332 | 113.22406 | 227 ft | 116 kts | 358° |
| 2026-04-29 23:41 | 28.18962 | 113.22368 | 225 ft | 65 kts | 357° |
| 2026-04-29 23:41 | 28.19239 | 113.22353 | 223 ft | 12 kts | 357° |
| 2026-04-29 23:41 | 28.19333 | 113.22346 | 224 ft | 15 kts | 355° |
| 2026-04-29 23:42 | 28.19451 | 113.22322 | 230 ft | 18 kts | 346° |
| 2026-04-29 23:42 | 28.19565 | 113.22271 | 226 ft | 18 kts | 327° |
| 2026-04-29 23:42 | 28.19677 | 113.22189 | 225 ft | 20 kts | 328° |
| 2026-04-29 23:42 | 28.19807 | 113.22121 | 226 ft | 21 kts | 347° |
| 2026-04-29 23:43 | 28.19914 | 113.22109 | 225 ft | 15 kts | 357° |
| 2026-04-29 23:43 | 28.20018 | 113.22102 | 225 ft | 12 kts | 356° |
| 2026-04-29 23:43 | 28.20030 | 113.22101 | 225 ft | 2 kts | 354° |
| 2026-04-29 23:43 | 28.20065 | 113.22076 | 225 ft | 9 kts | 312° |
| 2026-04-29 23:44 | 28.20075 | 113.22030 | 225 ft | 10 kts | 268° |
| 2026-04-29 23:44 | 28.20072 | 113.21932 | 224 ft | 15 kts | 267° |
| 2026-04-29 23:44 | 28.20066 | 113.21816 | 224 ft | 0 kts | 266° |
| 2026-04-29 23:45 | 28.20063 | 113.21751 | 225 ft | 19 kts | 267° |
| 2026-04-29 23:45 | 28.19989 | 113.21627 | 225 ft | 22 kts | 185° |
| 2026-04-29 23:45 | 28.19830 | 113.21633 | 225 ft | 24 kts | 176° |
| 2026-04-29 23:46 | 28.19658 | 113.21643 | 225 ft | 26 kts | 178° |
| 2026-04-29 23:46 | 28.19470 | 113.21653 | 225 ft | 28 kts | 177° |
| 2026-04-29 23:46 | 28.19288 | 113.21655 | 226 ft | 23 kts | 176° |
| 2026-04-29 23:46 | 28.19126 | 113.21665 | 225 ft | 17 kts | 177° |
| 2026-04-29 23:47 | 28.19115 | 113.21666 | 225 ft | 0 kts | 177° |
| 2026-04-29 23:47 | 28.19104 | 113.21666 | 225 ft | 6 kts | 177° |
| 2026-04-29 23:48 | 28.19055 | 113.21659 | 225 ft | 6 kts | 212° |
| 2026-04-29 23:48 | 28.19045 | 113.21625 | 225 ft | 6 kts | 258° |
| 2026-04-29 23:48 | 28.19044 | 113.21619 | 225 ft | 0 kts | 261° |
| 2026-04-29 23:48 | 28.19042 | 113.21597 | 225 ft | 0 kts | 269° |